<?xml version="1.0" encoding="UTF-8"?><gpx version="1.0" creator="dbj" xmlns="http://www.topografix.com/GPX/1/0"><time>2020-10-11T07:58:17Z</time><bounds minlat="42.5496983" minlon="12.64725144" maxlat="42.56669713" maxlon="12.71234916"/><wpt lat="42.565799598" lon="12.648734199"><name>Start Lat:42.5658, Lon:12.6487</name><sym>Start</sym><ele>145</ele></wpt><trk><trkseg><trkpt lat="42.565799598" lon="12.648734199"><ele>145</ele><time>2020-10-11T07:58:17Z</time></trkpt>
<trkpt lat="42.565825162" lon="12.648754064"><ele>145</ele><time>2020-10-11T07:58:18Z</time></trkpt>
<trkpt lat="42.565909317" lon="12.648790609"><ele>145</ele><time>2020-10-11T07:58:21Z</time></trkpt>
<trkpt lat="42.56593639" lon="12.648789268"><ele>145</ele><time>2020-10-11T07:58:22Z</time></trkpt>
<trkpt lat="42.565959441" lon="12.648777785"><ele>145</ele><time>2020-10-11T07:58:23Z</time></trkpt>
<trkpt lat="42.565987101" lon="12.648727493"><ele>145</ele><time>2020-10-11T07:58:25Z</time></trkpt>
<trkpt lat="42.566028843" lon="12.648677705"><ele>144</ele><time>2020-10-11T07:58:27Z</time></trkpt>
<trkpt lat="42.566056838" lon="12.648675358"><ele>144</ele><time>2020-10-11T07:58:28Z</time></trkpt>
<trkpt lat="42.566119619" lon="12.648710897"><ele>144</ele><time>2020-10-11T07:58:30Z</time></trkpt>
<trkpt lat="42.566150464" lon="12.64872741"><ele>144</ele><time>2020-10-11T07:58:31Z</time></trkpt>
<trkpt lat="42.566326233" lon="12.648815503"><ele>144</ele><time>2020-10-11T07:58:36Z</time></trkpt>
<trkpt lat="42.566363616" lon="12.648829585"><ele>144</ele><time>2020-10-11T07:58:37Z</time></trkpt>
<trkpt lat="42.566469396" lon="12.648871746"><ele>145</ele><time>2020-10-11T07:58:40Z</time></trkpt>
<trkpt lat="42.566584311" lon="12.648922289"><ele>144</ele><time>2020-10-11T07:58:44Z</time></trkpt>
<trkpt lat="42.566605853" lon="12.648934945"><ele>144</ele><time>2020-10-11T07:58:45Z</time></trkpt>
<trkpt lat="42.566683386" lon="12.64901164"><ele>144</ele><time>2020-10-11T07:58:48Z</time></trkpt>
<trkpt lat="42.566697132" lon="12.649057657"><ele>144</ele><time>2020-10-11T07:58:49Z</time></trkpt>
<trkpt lat="42.566679446" lon="12.649251111"><ele>144</ele><time>2020-10-11T07:58:53Z</time></trkpt>
<trkpt lat="42.566576684" lon="12.64939067"><ele>145</ele><time>2020-10-11T07:58:57Z</time></trkpt>
<trkpt lat="42.566426564" lon="12.649489325"><ele>144</ele><time>2020-10-11T07:59:02Z</time></trkpt>
<trkpt lat="42.566353809" lon="12.649632404"><ele>144</ele><time>2020-10-11T07:59:06Z</time></trkpt>
<trkpt lat="42.566293292" lon="12.649891907"><ele>144</ele><time>2020-10-11T07:59:12Z</time></trkpt>
<trkpt lat="42.56623378" lon="12.650149567"><ele>144</ele><time>2020-10-11T07:59:18Z</time></trkpt>
<trkpt lat="42.566220537" lon="12.650187453"><ele>144</ele><time>2020-10-11T07:59:19Z</time></trkpt>
<trkpt lat="42.566161025" lon="12.650444945"><ele>144</ele><time>2020-10-11T07:59:25Z</time></trkpt>
<trkpt lat="42.566119786" lon="12.650717357"><ele>144</ele><time>2020-10-11T07:59:31Z</time></trkpt>
<trkpt lat="42.566074189" lon="12.650972335"><ele>144</ele><time>2020-10-11T07:59:37Z</time></trkpt>
<trkpt lat="42.566055832" lon="12.651057327"><ele>144</ele><time>2020-10-11T07:59:39Z</time></trkpt>
<trkpt lat="42.56599389" lon="12.651303336"><ele>144</ele><time>2020-10-11T07:59:45Z</time></trkpt>
<trkpt lat="42.565924823" lon="12.651552111"><ele>144</ele><time>2020-10-11T07:59:51Z</time></trkpt>
<trkpt lat="42.5659006" lon="12.651634673"><ele>144</ele><time>2020-10-11T07:59:53Z</time></trkpt>
<trkpt lat="42.565832958" lon="12.651879005"><ele>144</ele><time>2020-10-11T07:59:59Z</time></trkpt>
<trkpt lat="42.565801358" lon="12.652157033"><ele>144</ele><time>2020-10-11T08:00:05Z</time></trkpt>
<trkpt lat="42.565796161" lon="12.652202211"><ele>144</ele><time>2020-10-11T08:00:06Z</time></trkpt>
<trkpt lat="42.565737572" lon="12.652422069"><ele>144</ele><time>2020-10-11T08:00:11Z</time></trkpt>
<trkpt lat="42.565728687" lon="12.652467163"><ele>144</ele><time>2020-10-11T08:00:12Z</time></trkpt>
<trkpt lat="42.565699099" lon="12.652597586"><ele>144</ele><time>2020-10-11T08:00:15Z</time></trkpt>
<trkpt lat="42.56566993" lon="12.652806127"><ele>144</ele><time>2020-10-11T08:00:20Z</time></trkpt>
<trkpt lat="42.565623494" lon="12.65307284"><ele>144</ele><time>2020-10-11T08:00:26Z</time></trkpt>
<trkpt lat="42.565536238" lon="12.653319687"><ele>144</ele><time>2020-10-11T08:00:32Z</time></trkpt>
<trkpt lat="42.56546759" lon="12.653562007"><ele>144</ele><time>2020-10-11T08:00:38Z</time></trkpt>
<trkpt lat="42.565424172" lon="12.653816398"><ele>144</ele><time>2020-10-11T08:00:44Z</time></trkpt>
<trkpt lat="42.565364409" lon="12.654025862"><ele>144</ele><time>2020-10-11T08:00:49Z</time></trkpt>
<trkpt lat="42.565330043" lon="12.654149244"><ele>144</ele><time>2020-10-11T08:00:52Z</time></trkpt>
<trkpt lat="42.565314621" lon="12.654278828"><ele>144</ele><time>2020-10-11T08:00:55Z</time></trkpt>
<trkpt lat="42.56524262" lon="12.654529866"><ele>144</ele><time>2020-10-11T08:01:01Z</time></trkpt>
<trkpt lat="42.565232981" lon="12.654575296"><ele>145</ele><time>2020-10-11T08:01:02Z</time></trkpt>
<trkpt lat="42.565152096" lon="12.654827759"><ele>145</ele><time>2020-10-11T08:01:08Z</time></trkpt>
<trkpt lat="42.565127453" lon="12.654863466"><ele>144</ele><time>2020-10-11T08:01:09Z</time></trkpt>
<trkpt lat="42.56499527" lon="12.654964635"><ele>144</ele><time>2020-10-11T08:01:13Z</time></trkpt>
<trkpt lat="42.564931652" lon="12.65495223"><ele>144</ele><time>2020-10-11T08:01:15Z</time></trkpt>
<trkpt lat="42.564831655" lon="12.654912164"><ele>144</ele><time>2020-10-11T08:01:18Z</time></trkpt>
<trkpt lat="42.564676004" lon="12.654824574"><ele>143</ele><time>2020-10-11T08:01:23Z</time></trkpt>
<trkpt lat="42.564645912" lon="12.654802948"><ele>143</ele><time>2020-10-11T08:01:24Z</time></trkpt>
<trkpt lat="42.564528817" lon="12.654733295"><ele>142</ele><time>2020-10-11T08:01:28Z</time></trkpt>
<trkpt lat="42.564373752" lon="12.654620893"><ele>142</ele><time>2020-10-11T08:01:33Z</time></trkpt>
<trkpt lat="42.564228326" lon="12.654462392"><ele>141</ele><time>2020-10-11T08:01:38Z</time></trkpt>
<trkpt lat="42.564194379" lon="12.654433558"><ele>141</ele><time>2020-10-11T08:01:39Z</time></trkpt>
<trkpt lat="42.564054402" lon="12.65427581"><ele>141</ele><time>2020-10-11T08:01:44Z</time></trkpt>
<trkpt lat="42.564007631" lon="12.654212359"><ele>141</ele><time>2020-10-11T08:01:46Z</time></trkpt>
<trkpt lat="42.563963877" lon="12.654145723"><ele>141</ele><time>2020-10-11T08:01:48Z</time></trkpt>
<trkpt lat="42.563810656" lon="12.65397599"><ele>141</ele><time>2020-10-11T08:01:54Z</time></trkpt>
<trkpt lat="42.563622901" lon="12.65386384"><ele>141</ele><time>2020-10-11T08:02:00Z</time></trkpt>
<trkpt lat="42.563506896" lon="12.653817069"><ele>141</ele><time>2020-10-11T08:02:04Z</time></trkpt>
<trkpt lat="42.563329702" lon="12.653748924"><ele>141</ele><time>2020-10-11T08:02:10Z</time></trkpt>
<trkpt lat="42.563304976" lon="12.653735178"><ele>141</ele><time>2020-10-11T08:02:11Z</time></trkpt>
<trkpt lat="42.56312619" lon="12.653681366"><ele>141</ele><time>2020-10-11T08:02:18Z</time></trkpt>
<trkpt lat="42.562979842" lon="12.653651023"><ele>141</ele><time>2020-10-11T08:02:23Z</time></trkpt>
<trkpt lat="42.562949583" lon="12.653649179"><ele>141</ele><time>2020-10-11T08:02:24Z</time></trkpt>
<trkpt lat="42.562751519" lon="12.653596457"><ele>141</ele><time>2020-10-11T08:02:30Z</time></trkpt>
<trkpt lat="42.562578181" lon="12.65351289"><ele>141</ele><time>2020-10-11T08:02:35Z</time></trkpt>
<trkpt lat="42.562518083" lon="12.653496042"><ele>141</ele><time>2020-10-11T08:02:37Z</time></trkpt>
<trkpt lat="42.562387493" lon="12.653466789"><ele>141</ele><time>2020-10-11T08:02:41Z</time></trkpt>
<trkpt lat="42.562318174" lon="12.65344223"><ele>141</ele><time>2020-10-11T08:02:43Z</time></trkpt>
<trkpt lat="42.562112147" lon="12.653358579"><ele>141</ele><time>2020-10-11T08:02:49Z</time></trkpt>
<trkpt lat="42.562078619" lon="12.653347598"><ele>141</ele><time>2020-10-11T08:02:50Z</time></trkpt>
<trkpt lat="42.561875358" lon="12.653284734"><ele>141</ele><time>2020-10-11T08:02:56Z</time></trkpt>
<trkpt lat="42.561842166" lon="12.653283142"><ele>141</ele><time>2020-10-11T08:02:57Z</time></trkpt>
<trkpt lat="42.561698668" lon="12.65323922"><ele>141</ele><time>2020-10-11T08:03:02Z</time></trkpt>
<trkpt lat="42.561637061" lon="12.653202256"><ele>141</ele><time>2020-10-11T08:03:04Z</time></trkpt>
<trkpt lat="42.561604371" lon="12.653183984"><ele>141</ele><time>2020-10-11T08:03:05Z</time></trkpt>
<trkpt lat="42.561516697" lon="12.6531207"><ele>141</ele><time>2020-10-11T08:03:08Z</time></trkpt>
<trkpt lat="42.561373869" lon="12.653022381"><ele>141</ele><time>2020-10-11T08:03:13Z</time></trkpt>
<trkpt lat="42.561244955" lon="12.652961696"><ele>141</ele><time>2020-10-11T08:03:18Z</time></trkpt>
<trkpt lat="42.561075641" lon="12.652806044"><ele>141</ele><time>2020-10-11T08:03:24Z</time></trkpt>
<trkpt lat="42.56103348" lon="12.652747622"><ele>141</ele><time>2020-10-11T08:03:25Z</time></trkpt>
<trkpt lat="42.560876822" lon="12.652578559"><ele>140</ele><time>2020-10-11T08:03:31Z</time></trkpt>
<trkpt lat="42.560824184" lon="12.652521478"><ele>140</ele><time>2020-10-11T08:03:33Z</time></trkpt>
<trkpt lat="42.560660737" lon="12.652358366"><ele>141</ele><time>2020-10-11T08:03:38Z</time></trkpt>
<trkpt lat="42.56063249" lon="12.652329784"><ele>140</ele><time>2020-10-11T08:03:39Z</time></trkpt>
<trkpt lat="42.560531739" lon="12.652215874"><ele>140</ele><time>2020-10-11T08:03:43Z</time></trkpt>
<trkpt lat="42.560455967" lon="12.652141694"><ele>140</ele><time>2020-10-11T08:03:46Z</time></trkpt>
<trkpt lat="42.560356306" lon="12.652070113"><ele>140</ele><time>2020-10-11T08:03:50Z</time></trkpt>
<trkpt lat="42.560328143" lon="12.652060809"><ele>140</ele><time>2020-10-11T08:03:51Z</time></trkpt>
<trkpt lat="42.560269721" lon="12.652052594"><ele>140</ele><time>2020-10-11T08:03:53Z</time></trkpt>
<trkpt lat="42.560209706" lon="12.65207707"><ele>140</ele><time>2020-10-11T08:03:55Z</time></trkpt>
<trkpt lat="42.560182884" lon="12.652106741"><ele>140</ele><time>2020-10-11T08:03:56Z</time></trkpt>
<trkpt lat="42.560097137" lon="12.652291143"><ele>140</ele><time>2020-10-11T08:04:01Z</time></trkpt>
<trkpt lat="42.560084313" lon="12.652325593"><ele>140</ele><time>2020-10-11T08:04:02Z</time></trkpt>
<trkpt lat="42.560010469" lon="12.652584678"><ele>140</ele><time>2020-10-11T08:04:09Z</time></trkpt>
<trkpt lat="42.559973253" lon="12.652785089"><ele>141</ele><time>2020-10-11T08:04:14Z</time></trkpt>
<trkpt lat="42.559954394" lon="12.65290034"><ele>141</ele><time>2020-10-11T08:04:17Z</time></trkpt>
<trkpt lat="42.559948023" lon="12.652938226"><ele>141</ele><time>2020-10-11T08:04:18Z</time></trkpt>
<trkpt lat="42.559926314" lon="12.6530487"><ele>141</ele><time>2020-10-11T08:04:21Z</time></trkpt>
<trkpt lat="42.559919944" lon="12.653087089"><ele>141</ele><time>2020-10-11T08:04:22Z</time></trkpt>
<trkpt lat="42.559865294" lon="12.653315077"><ele>141</ele><time>2020-10-11T08:04:28Z</time></trkpt>
<trkpt lat="42.559799412" lon="12.653552955"><ele>142</ele><time>2020-10-11T08:04:34Z</time></trkpt>
<trkpt lat="42.559788432" lon="12.653590338"><ele>142</ele><time>2020-10-11T08:04:35Z</time></trkpt>
<trkpt lat="42.559710899" lon="12.65382369"><ele>142</ele><time>2020-10-11T08:04:41Z</time></trkpt>
<trkpt lat="42.559679132" lon="12.653897284"><ele>142</ele><time>2020-10-11T08:04:43Z</time></trkpt>
<trkpt lat="42.559623476" lon="12.654052097"><ele>142</ele><time>2020-10-11T08:04:47Z</time></trkpt>
<trkpt lat="42.559555247" lon="12.654318726"><ele>142</ele><time>2020-10-11T08:04:54Z</time></trkpt>
<trkpt lat="42.559481822" lon="12.654555179"><ele>142</ele><time>2020-10-11T08:05:00Z</time></trkpt>
<trkpt lat="42.559470003" lon="12.65459382"><ele>142</ele><time>2020-10-11T08:05:01Z</time></trkpt>
<trkpt lat="42.559414934" lon="12.654839996"><ele>142</ele><time>2020-10-11T08:05:07Z</time></trkpt>
<trkpt lat="42.559347125" lon="12.655079635"><ele>143</ele><time>2020-10-11T08:05:13Z</time></trkpt>
<trkpt lat="42.559325416" lon="12.655159933"><ele>143</ele><time>2020-10-11T08:05:15Z</time></trkpt>
<trkpt lat="42.55927965" lon="12.655312065"><ele>143</ele><time>2020-10-11T08:05:19Z</time></trkpt>
<trkpt lat="42.559269173" lon="12.655350789"><ele>143</ele><time>2020-10-11T08:05:20Z</time></trkpt>
<trkpt lat="42.559192143" lon="12.655579532"><ele>143</ele><time>2020-10-11T08:05:26Z</time></trkpt>
<trkpt lat="42.559171608" lon="12.655609874"><ele>143</ele><time>2020-10-11T08:05:27Z</time></trkpt>
<trkpt lat="42.55907245" lon="12.655783044"><ele>143</ele><time>2020-10-11T08:05:32Z</time></trkpt>
<trkpt lat="42.558929203" lon="12.65590148"><ele>143</ele><time>2020-10-11T08:05:37Z</time></trkpt>
<trkpt lat="42.558746981" lon="12.655878682"><ele>144</ele><time>2020-10-11T08:05:42Z</time></trkpt>
<trkpt lat="42.55856677" lon="12.655721353"><ele>144</ele><time>2020-10-11T08:05:48Z</time></trkpt>
<trkpt lat="42.558539612" lon="12.655693106"><ele>144</ele><time>2020-10-11T08:05:49Z</time></trkpt>
<trkpt lat="42.558409106" lon="12.655507699"><ele>145</ele><time>2020-10-11T08:05:55Z</time></trkpt>
<trkpt lat="42.558380356" lon="12.655427735"><ele>145</ele><time>2020-10-11T08:05:57Z</time></trkpt>
<trkpt lat="42.558347667" lon="12.655349616"><ele>145</ele><time>2020-10-11T08:05:59Z</time></trkpt>
<trkpt lat="42.558274241" lon="12.655194048"><ele>146</ele><time>2020-10-11T08:06:03Z</time></trkpt>
<trkpt lat="42.558170557" lon="12.654985087"><ele>146</ele><time>2020-10-11T08:06:08Z</time></trkpt>
<trkpt lat="42.558135018" lon="12.654896909"><ele>145</ele><time>2020-10-11T08:06:10Z</time></trkpt>
<trkpt lat="42.558050361" lon="12.654677471"><ele>145</ele><time>2020-10-11T08:06:15Z</time></trkpt>
<trkpt lat="42.558030831" lon="12.654639082"><ele>144</ele><time>2020-10-11T08:06:16Z</time></trkpt>
<trkpt lat="42.55800778" lon="12.654607147"><ele>144</ele><time>2020-10-11T08:06:17Z</time></trkpt>
<trkpt lat="42.557893116" lon="12.654566914"><ele>143</ele><time>2020-10-11T08:06:21Z</time></trkpt>
<trkpt lat="42.557863025" lon="12.654581834"><ele>143</ele><time>2020-10-11T08:06:22Z</time></trkpt>
<trkpt lat="42.557785409" lon="12.654652996"><ele>143</ele><time>2020-10-11T08:06:25Z</time></trkpt>
<trkpt lat="42.557723299" lon="12.654787358"><ele>142</ele><time>2020-10-11T08:06:30Z</time></trkpt>
<trkpt lat="42.557774428" lon="12.655044599"><ele>143</ele><time>2020-10-11T08:06:35Z</time></trkpt>
<trkpt lat="42.55778214" lon="12.65509313"><ele>143</ele><time>2020-10-11T08:06:36Z</time></trkpt>
<trkpt lat="42.557803681" lon="12.655344"><ele>144</ele><time>2020-10-11T08:06:42Z</time></trkpt>
<trkpt lat="42.557806196" lon="12.655418348"><ele>144</ele><time>2020-10-11T08:06:44Z</time></trkpt>
<trkpt lat="42.55782824" lon="12.655560756"><ele>145</ele><time>2020-10-11T08:06:48Z</time></trkpt>
<trkpt lat="42.557833437" lon="12.655597134"><ele>145</ele><time>2020-10-11T08:06:49Z</time></trkpt>
<trkpt lat="42.557846345" lon="12.655739291"><ele>147</ele><time>2020-10-11T08:06:53Z</time></trkpt>
<trkpt lat="42.557849614" lon="12.65577592"><ele>147</ele><time>2020-10-11T08:06:54Z</time></trkpt>
<trkpt lat="42.557854559" lon="12.65584725"><ele>147</ele><time>2020-10-11T08:06:56Z</time></trkpt>
<trkpt lat="42.557861013" lon="12.655920256"><ele>148</ele><time>2020-10-11T08:06:58Z</time></trkpt>
<trkpt lat="42.557871407" lon="12.656054953"><ele>149</ele><time>2020-10-11T08:07:02Z</time></trkpt>
<trkpt lat="42.557873419" lon="12.656090492"><ele>149</ele><time>2020-10-11T08:07:03Z</time></trkpt>
<trkpt lat="42.557870653" lon="12.656233488"><ele>150</ele><time>2020-10-11T08:07:07Z</time></trkpt>
<trkpt lat="42.55785238" lon="12.656336334"><ele>150</ele><time>2020-10-11T08:07:10Z</time></trkpt>
<trkpt lat="42.557808291" lon="12.656478323"><ele>151</ele><time>2020-10-11T08:07:14Z</time></trkpt>
<trkpt lat="42.557715755" lon="12.656721147"><ele>152</ele><time>2020-10-11T08:07:21Z</time></trkpt>
<trkpt lat="42.557666721" lon="12.656859364"><ele>152</ele><time>2020-10-11T08:07:25Z</time></trkpt>
<trkpt lat="42.557611987" lon="12.656994229"><ele>153</ele><time>2020-10-11T08:07:29Z</time></trkpt>
<trkpt lat="42.557596061" lon="12.657027505"><ele>153</ele><time>2020-10-11T08:07:30Z</time></trkpt>
<trkpt lat="42.557494137" lon="12.657229593"><ele>153</ele><time>2020-10-11T08:07:36Z</time></trkpt>
<trkpt lat="42.557475865" lon="12.65726245"><ele>153</ele><time>2020-10-11T08:07:37Z</time></trkpt>
<trkpt lat="42.557440409" lon="12.657325314"><ele>153</ele><time>2020-10-11T08:07:39Z</time></trkpt>
<trkpt lat="42.55742155" lon="12.657355992"><ele>153</ele><time>2020-10-11T08:07:40Z</time></trkpt>
<trkpt lat="42.557341838" lon="12.657471411"><ele>153</ele><time>2020-10-11T08:07:44Z</time></trkpt>
<trkpt lat="42.557321386" lon="12.657499658"><ele>153</ele><time>2020-10-11T08:07:45Z</time></trkpt>
<trkpt lat="42.557183672" lon="12.657695459"><ele>154</ele><time>2020-10-11T08:07:52Z</time></trkpt>
<trkpt lat="42.557129944" lon="12.65778414"><ele>154</ele><time>2020-10-11T08:07:55Z</time></trkpt>
<trkpt lat="42.557042688" lon="12.657896625"><ele>155</ele><time>2020-10-11T08:07:59Z</time></trkpt>
<trkpt lat="42.556989463" lon="12.657983461"><ele>155</ele><time>2020-10-11T08:08:02Z</time></trkpt>
<trkpt lat="42.556905476" lon="12.658093683"><ele>155</ele><time>2020-10-11T08:08:06Z</time></trkpt>
<trkpt lat="42.556841858" lon="12.658174904"><ele>155</ele><time>2020-10-11T08:08:09Z</time></trkpt>
<trkpt lat="42.556757284" lon="12.6582749"><ele>156</ele><time>2020-10-11T08:08:13Z</time></trkpt>
<trkpt lat="42.556672627" lon="12.658379506"><ele>156</ele><time>2020-10-11T08:08:17Z</time></trkpt>
<trkpt lat="42.556594759" lon="12.658476904"><ele>157</ele><time>2020-10-11T08:08:21Z</time></trkpt>
<trkpt lat="42.556495182" lon="12.658562567"><ele>157</ele><time>2020-10-11T08:08:25Z</time></trkpt>
<trkpt lat="42.556418069" lon="12.658608248"><ele>158</ele><time>2020-10-11T08:08:28Z</time></trkpt>
<trkpt lat="42.556318995" lon="12.658652924"><ele>159</ele><time>2020-10-11T08:08:33Z</time></trkpt>
<trkpt lat="42.556206007" lon="12.658678154"><ele>159</ele><time>2020-10-11T08:08:36Z</time></trkpt>
<trkpt lat="42.556122271" lon="12.658686116"><ele>160</ele><time>2020-10-11T08:08:39Z</time></trkpt>
<trkpt lat="42.556071728" lon="12.658686619"><ele>160</ele><time>2020-10-11T08:08:41Z</time></trkpt>
<trkpt lat="42.556046331" lon="12.658686619"><ele>160</ele><time>2020-10-11T08:08:42Z</time></trkpt>
<trkpt lat="42.555875676" lon="12.658673041"><ele>161</ele><time>2020-10-11T08:08:49Z</time></trkpt>
<trkpt lat="42.555855475" lon="12.65867061"><ele>161</ele><time>2020-10-11T08:08:50Z</time></trkpt>
<trkpt lat="42.555740811" lon="12.658648649"><ele>162</ele><time>2020-10-11T08:08:55Z</time></trkpt>
<trkpt lat="42.555687334" lon="12.65864295"><ele>162</ele><time>2020-10-11T08:08:57Z</time></trkpt>
<trkpt lat="42.555512991" lon="12.658627275"><ele>163</ele><time>2020-10-11T08:09:04Z</time></trkpt>
<trkpt lat="42.555327332" lon="12.658619732"><ele>164</ele><time>2020-10-11T08:09:11Z</time></trkpt>
<trkpt lat="42.555298414" lon="12.658624761"><ele>164</ele><time>2020-10-11T08:09:12Z</time></trkpt>
<trkpt lat="42.55511309" lon="12.658699108"><ele>165</ele><time>2020-10-11T08:09:18Z</time></trkpt>
<trkpt lat="42.555010244" lon="12.658801116"><ele>165</ele><time>2020-10-11T08:09:22Z</time></trkpt>
<trkpt lat="42.554933634" lon="12.658876218"><ele>166</ele><time>2020-10-11T08:09:25Z</time></trkpt>
<trkpt lat="42.55481285" lon="12.659013849"><ele>166</ele><time>2020-10-11T08:09:30Z</time></trkpt>
<trkpt lat="42.55474194" lon="12.659269916"><ele>166</ele><time>2020-10-11T08:09:37Z</time></trkpt>
<trkpt lat="42.554678069" lon="12.659451216"><ele>166</ele><time>2020-10-11T08:09:42Z</time></trkpt>
<trkpt lat="42.55464823" lon="12.659514248"><ele>166</ele><time>2020-10-11T08:09:44Z</time></trkpt>
<trkpt lat="42.554521495" lon="12.659698986"><ele>166</ele><time>2020-10-11T08:09:50Z</time></trkpt>
<trkpt lat="42.554499535" lon="12.659728406"><ele>166</ele><time>2020-10-11T08:09:51Z</time></trkpt>
<trkpt lat="42.554478329" lon="12.659758329"><ele>166</ele><time>2020-10-11T08:09:52Z</time></trkpt>
<trkpt lat="42.554346565" lon="12.659961339"><ele>167</ele><time>2020-10-11T08:09:59Z</time></trkpt>
<trkpt lat="42.554329801" lon="12.659994112"><ele>167</ele><time>2020-10-11T08:10:00Z</time></trkpt>
<trkpt lat="42.554231146" lon="12.660185052"><ele>167</ele><time>2020-10-11T08:10:06Z</time></trkpt>
<trkpt lat="42.554145316" lon="12.660403987"><ele>167</ele><time>2020-10-11T08:10:12Z</time></trkpt>
<trkpt lat="42.554120841" lon="12.660480263"><ele>168</ele><time>2020-10-11T08:10:14Z</time></trkpt>
<trkpt lat="42.554059569" lon="12.660735575"><ele>168</ele><time>2020-10-11T08:10:21Z</time></trkpt>
<trkpt lat="42.554039536" lon="12.660845211"><ele>169</ele><time>2020-10-11T08:10:24Z</time></trkpt>
<trkpt lat="42.554028137" lon="12.660920732"><ele>169</ele><time>2020-10-11T08:10:26Z</time></trkpt>
<trkpt lat="42.554023359" lon="12.660960881"><ele>169</ele><time>2020-10-11T08:10:27Z</time></trkpt>
<trkpt lat="42.553993268" lon="12.661198508"><ele>169</ele><time>2020-10-11T08:10:33Z</time></trkpt>
<trkpt lat="42.553986898" lon="12.661238154"><ele>170</ele><time>2020-10-11T08:10:34Z</time></trkpt>
<trkpt lat="42.553982288" lon="12.661276292"><ele>170</ele><time>2020-10-11T08:10:35Z</time></trkpt>
<trkpt lat="42.553969631" lon="12.661429849"><ele>170</ele><time>2020-10-11T08:10:39Z</time></trkpt>
<trkpt lat="42.553950436" lon="12.661702009"><ele>170</ele><time>2020-10-11T08:10:46Z</time></trkpt>
<trkpt lat="42.553949431" lon="12.661742074"><ele>170</ele><time>2020-10-11T08:10:47Z</time></trkpt>
<trkpt lat="42.553942138" lon="12.661985401"><ele>171</ele><time>2020-10-11T08:10:53Z</time></trkpt>
<trkpt lat="42.553940713" lon="12.66207098"><ele>171</ele><time>2020-10-11T08:10:55Z</time></trkpt>
<trkpt lat="42.553946581" lon="12.662324952"><ele>171</ele><time>2020-10-11T08:11:01Z</time></trkpt>
<trkpt lat="42.553947084" lon="12.662364682"><ele>171</ele><time>2020-10-11T08:11:02Z</time></trkpt>
<trkpt lat="42.553928224" lon="12.662604321"><ele>171</ele><time>2020-10-11T08:11:08Z</time></trkpt>
<trkpt lat="42.55391255" lon="12.662865752"><ele>171</ele><time>2020-10-11T08:11:14Z</time></trkpt>
<trkpt lat="42.553908778" lon="12.662907662"><ele>171</ele><time>2020-10-11T08:11:15Z</time></trkpt>
<trkpt lat="42.553883046" lon="12.6631587"><ele>171</ele><time>2020-10-11T08:11:21Z</time></trkpt>
<trkpt lat="42.553871982" lon="12.663240507"><ele>171</ele><time>2020-10-11T08:11:23Z</time></trkpt>
<trkpt lat="42.553848177" lon="12.663493892"><ele>171</ele><time>2020-10-11T08:11:29Z</time></trkpt>
<trkpt lat="42.553837532" lon="12.663573856"><ele>171</ele><time>2020-10-11T08:11:31Z</time></trkpt>
<trkpt lat="42.553809956" lon="12.663821373"><ele>172</ele><time>2020-10-11T08:11:37Z</time></trkpt>
<trkpt lat="42.553805765" lon="12.663862696"><ele>172</ele><time>2020-10-11T08:11:38Z</time></trkpt>
<trkpt lat="42.553799562" lon="12.663944"><ele>172</ele><time>2020-10-11T08:11:40Z</time></trkpt>
<trkpt lat="42.553784391" lon="12.664149692"><ele>172</ele><time>2020-10-11T08:11:45Z</time></trkpt>
<trkpt lat="42.553766537" lon="12.66439327"><ele>172</ele><time>2020-10-11T08:11:51Z</time></trkpt>
<trkpt lat="42.553748265" lon="12.66463819"><ele>172</ele><time>2020-10-11T08:11:57Z</time></trkpt>
<trkpt lat="42.553744828" lon="12.664886629"><ele>172</ele><time>2020-10-11T08:12:03Z</time></trkpt>
<trkpt lat="42.553741476" lon="12.664926024"><ele>172</ele><time>2020-10-11T08:12:04Z</time></trkpt>
<trkpt lat="42.553721275" lon="12.665207991"><ele>173</ele><time>2020-10-11T08:12:11Z</time></trkpt>
<trkpt lat="42.553720186" lon="12.66532911"><ele>173</ele><time>2020-10-11T08:12:14Z</time></trkpt>
<trkpt lat="42.553706272" lon="12.665488617"><ele>173</ele><time>2020-10-11T08:12:18Z</time></trkpt>
<trkpt lat="42.553661931" lon="12.66572088"><ele>174</ele><time>2020-10-11T08:12:24Z</time></trkpt>
<trkpt lat="42.553629661" lon="12.665831689"><ele>174</ele><time>2020-10-11T08:12:27Z</time></trkpt>
<trkpt lat="42.553580208" lon="12.666016677"><ele>174</ele><time>2020-10-11T08:12:32Z</time></trkpt>
<trkpt lat="42.553532179" lon="12.666229997"><ele>175</ele><time>2020-10-11T08:12:38Z</time></trkpt>
<trkpt lat="42.55349312" lon="12.666369639"><ele>175</ele><time>2020-10-11T08:12:42Z</time></trkpt>
<trkpt lat="42.553481972" lon="12.666402496"><ele>175</ele><time>2020-10-11T08:12:43Z</time></trkpt>
<trkpt lat="42.553420616" lon="12.666651607"><ele>175</ele><time>2020-10-11T08:12:50Z</time></trkpt>
<trkpt lat="42.553372839" lon="12.666819915"><ele>176</ele><time>2020-10-11T08:12:55Z</time></trkpt>
<trkpt lat="42.553364122" lon="12.666854784"><ele>176</ele><time>2020-10-11T08:12:56Z</time></trkpt>
<trkpt lat="42.553329924" lon="12.666989062"><ele>176</ele><time>2020-10-11T08:13:01Z</time></trkpt>
<trkpt lat="42.553284913" lon="12.667260384"><ele>177</ele><time>2020-10-11T08:13:08Z</time></trkpt>
<trkpt lat="42.553260941" lon="12.667523073"><ele>178</ele><time>2020-10-11T08:13:15Z</time></trkpt>
<trkpt lat="42.553235628" lon="12.66776883"><ele>179</ele><time>2020-10-11T08:13:22Z</time></trkpt>
<trkpt lat="42.553234035" lon="12.667800849"><ele>179</ele><time>2020-10-11T08:13:23Z</time></trkpt>
<trkpt lat="42.553220708" lon="12.667896152"><ele>179</ele><time>2020-10-11T08:13:26Z</time></trkpt>
<trkpt lat="42.553215595" lon="12.668008637"><ele>179</ele><time>2020-10-11T08:13:29Z</time></trkpt>
<trkpt lat="42.553214924" lon="12.668284569"><ele>180</ele><time>2020-10-11T08:13:36Z</time></trkpt>
<trkpt lat="42.553216014" lon="12.668322707"><ele>180</ele><time>2020-10-11T08:13:37Z</time></trkpt>
<trkpt lat="42.553206291" lon="12.668549605"><ele>181</ele><time>2020-10-11T08:13:43Z</time></trkpt>
<trkpt lat="42.553202603" lon="12.668623952"><ele>181</ele><time>2020-10-11T08:13:45Z</time></trkpt>
<trkpt lat="42.553194556" lon="12.668844732"><ele>182</ele><time>2020-10-11T08:13:51Z</time></trkpt>
<trkpt lat="42.553187935" lon="12.669025362"><ele>182</ele><time>2020-10-11T08:13:56Z</time></trkpt>
<trkpt lat="42.553186174" lon="12.669060733"><ele>182</ele><time>2020-10-11T08:13:57Z</time></trkpt>
<trkpt lat="42.553162202" lon="12.669203058"><ele>183</ele><time>2020-10-11T08:14:01Z</time></trkpt>
<trkpt lat="42.55315097" lon="12.669312442"><ele>183</ele><time>2020-10-11T08:14:04Z</time></trkpt>
<trkpt lat="42.553133201" lon="12.669479242"><ele>184</ele><time>2020-10-11T08:14:09Z</time></trkpt>
<trkpt lat="42.553118533" lon="12.669615364"><ele>184</ele><time>2020-10-11T08:14:13Z</time></trkpt>
<trkpt lat="42.553105038" lon="12.669722987"><ele>185</ele><time>2020-10-11T08:14:16Z</time></trkpt>
<trkpt lat="42.553065559" lon="12.669906048"><ele>185</ele><time>2020-10-11T08:14:21Z</time></trkpt>
<trkpt lat="42.55305659" lon="12.669978049"><ele>186</ele><time>2020-10-11T08:14:23Z</time></trkpt>
<trkpt lat="42.552997246" lon="12.67021182"><ele>187</ele><time>2020-10-11T08:14:30Z</time></trkpt>
<trkpt lat="42.552960031" lon="12.670402508"><ele>188</ele><time>2020-10-11T08:14:36Z</time></trkpt>
<trkpt lat="42.552916864" lon="12.670614151"><ele>188</ele><time>2020-10-11T08:14:42Z</time></trkpt>
<trkpt lat="42.552898759" lon="12.670681793"><ele>189</ele><time>2020-10-11T08:14:44Z</time></trkpt>
<trkpt lat="42.552889036" lon="12.670715488"><ele>189</ele><time>2020-10-11T08:14:45Z</time></trkpt>
<trkpt lat="42.552868081" lon="12.670818418"><ele>190</ele><time>2020-10-11T08:14:48Z</time></trkpt>
<trkpt lat="42.55285291" lon="12.670887653"><ele>190</ele><time>2020-10-11T08:14:50Z</time></trkpt>
<trkpt lat="42.552804463" lon="12.67104364"><ele>191</ele><time>2020-10-11T08:14:55Z</time></trkpt>
<trkpt lat="42.55279189" lon="12.671073144"><ele>191</ele><time>2020-10-11T08:14:56Z</time></trkpt>
<trkpt lat="42.552777305" lon="12.671100385"><ele>191</ele><time>2020-10-11T08:14:57Z</time></trkpt>
<trkpt lat="42.552739671" lon="12.671220498"><ele>192</ele><time>2020-10-11T08:15:01Z</time></trkpt>
<trkpt lat="42.552730786" lon="12.671288056"><ele>192</ele><time>2020-10-11T08:15:03Z</time></trkpt>
<trkpt lat="42.552739084" lon="12.671380928"><ele>193</ele><time>2020-10-11T08:15:06Z</time></trkpt>
<trkpt lat="42.552774539" lon="12.671494083"><ele>193</ele><time>2020-10-11T08:15:10Z</time></trkpt>
<trkpt lat="42.552800104" lon="12.671554517"><ele>194</ele><time>2020-10-11T08:15:12Z</time></trkpt>
<trkpt lat="42.552854586" lon="12.671668846"><ele>195</ele><time>2020-10-11T08:15:16Z</time></trkpt>
<trkpt lat="42.552886773" lon="12.671715198"><ele>195</ele><time>2020-10-11T08:15:18Z</time></trkpt>
<trkpt lat="42.5529778" lon="12.67186909"><ele>195</ele><time>2020-10-11T08:15:24Z</time></trkpt>
<trkpt lat="42.552993642" lon="12.671897253"><ele>196</ele><time>2020-10-11T08:15:25Z</time></trkpt>
<trkpt lat="42.553074947" lon="12.672075033"><ele>196</ele><time>2020-10-11T08:15:31Z</time></trkpt>
<trkpt lat="42.553112749" lon="12.672162708"><ele>197</ele><time>2020-10-11T08:15:34Z</time></trkpt>
<trkpt lat="42.553156754" lon="12.672287682"><ele>198</ele><time>2020-10-11T08:15:38Z</time></trkpt>
<trkpt lat="42.553167567" lon="12.672321377"><ele>198</ele><time>2020-10-11T08:15:39Z</time></trkpt>
<trkpt lat="42.553236717" lon="12.672514832"><ele>199</ele><time>2020-10-11T08:15:45Z</time></trkpt>
<trkpt lat="42.553253984" lon="12.672584737"><ele>199</ele><time>2020-10-11T08:15:47Z</time></trkpt>
<trkpt lat="42.553275023" lon="12.672722368"><ele>199</ele><time>2020-10-11T08:15:51Z</time></trkpt>
<trkpt lat="42.553279046" lon="12.672881875"><ele>200</ele><time>2020-10-11T08:15:55Z</time></trkpt>
<trkpt lat="42.553274687" lon="12.672998467"><ele>200</ele><time>2020-10-11T08:15:58Z</time></trkpt>
<trkpt lat="42.553263707" lon="12.673139367"><ele>201</ele><time>2020-10-11T08:16:02Z</time></trkpt>
<trkpt lat="42.553248201" lon="12.673247829"><ele>201</ele><time>2020-10-11T08:16:05Z</time></trkpt>
<trkpt lat="42.553241495" lon="12.673432399"><ele>202</ele><time>2020-10-11T08:16:10Z</time></trkpt>
<trkpt lat="42.553242752" lon="12.673539184"><ele>202</ele><time>2020-10-11T08:16:13Z</time></trkpt>
<trkpt lat="42.553245099" lon="12.673643287"><ele>203</ele><time>2020-10-11T08:16:16Z</time></trkpt>
<trkpt lat="42.553237304" lon="12.673813775"><ele>203</ele><time>2020-10-11T08:16:21Z</time></trkpt>
<trkpt lat="42.55323437" lon="12.674033716"><ele>204</ele><time>2020-10-11T08:16:27Z</time></trkpt>
<trkpt lat="42.553236382" lon="12.674104124"><ele>204</ele><time>2020-10-11T08:16:29Z</time></trkpt>
<trkpt lat="42.553268485" lon="12.674359018"><ele>205</ele><time>2020-10-11T08:16:36Z</time></trkpt>
<trkpt lat="42.55328902" lon="12.674548784"><ele>205</ele><time>2020-10-11T08:16:41Z</time></trkpt>
<trkpt lat="42.553291451" lon="12.674584407"><ele>205</ele><time>2020-10-11T08:16:42Z</time></trkpt>
<trkpt lat="42.553322632" lon="12.674857238"><ele>206</ele><time>2020-10-11T08:16:49Z</time></trkpt>
<trkpt lat="42.553364877" lon="12.675113725"><ele>206</ele><time>2020-10-11T08:16:56Z</time></trkpt>
<trkpt lat="42.553377785" lon="12.675189329"><ele>206</ele><time>2020-10-11T08:16:58Z</time></trkpt>
<trkpt lat="42.553421706" lon="12.675463753"><ele>207</ele><time>2020-10-11T08:17:05Z</time></trkpt>
<trkpt lat="42.553462945" lon="12.675615298"><ele>207</ele><time>2020-10-11T08:17:09Z</time></trkpt>
<trkpt lat="42.553478368" lon="12.675687382"><ele>207</ele><time>2020-10-11T08:17:11Z</time></trkpt>
<trkpt lat="42.553525725" lon="12.675946467"><ele>208</ele><time>2020-10-11T08:17:18Z</time></trkpt>
<trkpt lat="42.553565204" lon="12.676195912"><ele>208</ele><time>2020-10-11T08:17:25Z</time></trkpt>
<trkpt lat="42.553569982" lon="12.676231116"><ele>208</ele><time>2020-10-11T08:17:26Z</time></trkpt>
<trkpt lat="42.553592026" lon="12.67634159"><ele>208</ele><time>2020-10-11T08:17:29Z</time></trkpt>
<trkpt lat="42.553609293" lon="12.676487938"><ele>209</ele><time>2020-10-11T08:17:33Z</time></trkpt>
<trkpt lat="42.553633265" lon="12.676753309"><ele>209</ele><time>2020-10-11T08:17:40Z</time></trkpt>
<trkpt lat="42.553632343" lon="12.676790776"><ele>209</ele><time>2020-10-11T08:17:41Z</time></trkpt>
<trkpt lat="42.553641563" lon="12.676935531"><ele>209</ele><time>2020-10-11T08:17:45Z</time></trkpt>
<trkpt lat="42.553640306" lon="12.677008789"><ele>209</ele><time>2020-10-11T08:17:47Z</time></trkpt>
<trkpt lat="42.553637875" lon="12.677257312"><ele>210</ele><time>2020-10-11T08:17:54Z</time></trkpt>
<trkpt lat="42.553636199" lon="12.677294193"><ele>210</ele><time>2020-10-11T08:17:55Z</time></trkpt>
<trkpt lat="42.55363184" lon="12.677471051"><ele>211</ele><time>2020-10-11T08:18:01Z</time></trkpt>
<trkpt lat="42.553645251" lon="12.677721838"><ele>211</ele><time>2020-10-11T08:18:07Z</time></trkpt>
<trkpt lat="42.553647179" lon="12.677758886"><ele>211</ele><time>2020-10-11T08:18:08Z</time></trkpt>
<trkpt lat="42.553661931" lon="12.678009756"><ele>212</ele><time>2020-10-11T08:18:15Z</time></trkpt>
<trkpt lat="42.553664027" lon="12.678045379"><ele>213</ele><time>2020-10-11T08:18:16Z</time></trkpt>
<trkpt lat="42.553663859" lon="12.678217795"><ele>213</ele><time>2020-10-11T08:18:22Z</time></trkpt>
<trkpt lat="42.553663272" lon="12.678326257"><ele>214</ele><time>2020-10-11T08:18:24Z</time></trkpt>
<trkpt lat="42.553658159" lon="12.678362131"><ele>214</ele><time>2020-10-11T08:18:25Z</time></trkpt>
<trkpt lat="42.553651202" lon="12.67847294"><ele>214</ele><time>2020-10-11T08:18:28Z</time></trkpt>
<trkpt lat="42.553642737" lon="12.678584838"><ele>215</ele><time>2020-10-11T08:18:31Z</time></trkpt>
<trkpt lat="42.553631421" lon="12.678733785"><ele>216</ele><time>2020-10-11T08:18:35Z</time></trkpt>
<trkpt lat="42.553602504" lon="12.678873511"><ele>216</ele><time>2020-10-11T08:18:39Z</time></trkpt>
<trkpt lat="42.553559672" lon="12.679047938"><ele>217</ele><time>2020-10-11T08:18:44Z</time></trkpt>
<trkpt lat="42.553540226" lon="12.679144749"><ele>217</ele><time>2020-10-11T08:18:47Z</time></trkpt>
<trkpt lat="42.553492533" lon="12.679311717"><ele>218</ele><time>2020-10-11T08:18:52Z</time></trkpt>
<trkpt lat="42.553485157" lon="12.679342395"><ele>218</ele><time>2020-10-11T08:18:53Z</time></trkpt>
<trkpt lat="42.553448612" lon="12.679506345"><ele>219</ele><time>2020-10-11T08:18:58Z</time></trkpt>
<trkpt lat="42.553433944" lon="12.6795734"><ele>219</ele><time>2020-10-11T08:19:00Z</time></trkpt>
<trkpt lat="42.553400667" lon="12.679673815"><ele>220</ele><time>2020-10-11T08:19:03Z</time></trkpt>
<trkpt lat="42.553378874" lon="12.679734584"><ele>221</ele><time>2020-10-11T08:19:05Z</time></trkpt>
<trkpt lat="42.553343084" lon="12.679869616"><ele>221</ele><time>2020-10-11T08:19:09Z</time></trkpt>
<trkpt lat="42.553298324" lon="12.68004505"><ele>222</ele><time>2020-10-11T08:19:14Z</time></trkpt>
<trkpt lat="42.553266138" lon="12.680181004"><ele>222</ele><time>2020-10-11T08:19:18Z</time></trkpt>
<trkpt lat="42.553238058" lon="12.680280078"><ele>223</ele><time>2020-10-11T08:19:21Z</time></trkpt>
<trkpt lat="42.553192209" lon="12.68048225"><ele>223</ele><time>2020-10-11T08:19:27Z</time></trkpt>
<trkpt lat="42.553187432" lon="12.680518376"><ele>223</ele><time>2020-10-11T08:19:28Z</time></trkpt>
<trkpt lat="42.553158682" lon="12.680733958"><ele>224</ele><time>2020-10-11T08:19:34Z</time></trkpt>
<trkpt lat="42.553152563" lon="12.680770168"><ele>224</ele><time>2020-10-11T08:19:35Z</time></trkpt>
<trkpt lat="42.553117778" lon="12.681043586"><ele>225</ele><time>2020-10-11T08:19:43Z</time></trkpt>
<trkpt lat="42.553111911" lon="12.681235028"><ele>226</ele><time>2020-10-11T08:19:49Z</time></trkpt>
<trkpt lat="42.553106714" lon="12.681306275"><ele>226</ele><time>2020-10-11T08:19:51Z</time></trkpt>
<trkpt lat="42.55309104" lon="12.681559743"><ele>227</ele><time>2020-10-11T08:19:58Z</time></trkpt>
<trkpt lat="42.553053824" lon="12.681789072"><ele>228</ele><time>2020-10-11T08:20:05Z</time></trkpt>
<trkpt lat="42.553052232" lon="12.681820672"><ele>228</ele><time>2020-10-11T08:20:06Z</time></trkpt>
<trkpt lat="42.553038569" lon="12.681992333"><ele>228</ele><time>2020-10-11T08:20:11Z</time></trkpt>
<trkpt lat="42.553030523" lon="12.68214128"><ele>229</ele><time>2020-10-11T08:20:15Z</time></trkpt>
<trkpt lat="42.553017531" lon="12.682249071"><ele>229</ele><time>2020-10-11T08:20:18Z</time></trkpt>
<trkpt lat="42.553002192" lon="12.682357449"><ele>230</ele><time>2020-10-11T08:20:21Z</time></trkpt>
<trkpt lat="42.5529892" lon="12.682503797"><ele>230</ele><time>2020-10-11T08:20:25Z</time></trkpt>
<trkpt lat="42.552978387" lon="12.68273321"><ele>231</ele><time>2020-10-11T08:20:31Z</time></trkpt>
<trkpt lat="42.552976124" lon="12.682770174"><ele>231</ele><time>2020-10-11T08:20:32Z</time></trkpt>
<trkpt lat="42.552980734" lon="12.682956168"><ele>232</ele><time>2020-10-11T08:20:37Z</time></trkpt>
<trkpt lat="42.553020213" lon="12.683193376"><ele>232</ele><time>2020-10-11T08:20:44Z</time></trkpt>
<trkpt lat="42.553043263" lon="12.683329917"><ele>232</ele><time>2020-10-11T08:20:48Z</time></trkpt>
<trkpt lat="42.553050723" lon="12.683397643"><ele>233</ele><time>2020-10-11T08:20:50Z</time></trkpt>
<trkpt lat="42.553089364" lon="12.683647173"><ele>233</ele><time>2020-10-11T08:20:57Z</time></trkpt>
<trkpt lat="42.553093722" lon="12.683680952"><ele>233</ele><time>2020-10-11T08:20:58Z</time></trkpt>
<trkpt lat="42.553115431" lon="12.683819672"><ele>233</ele><time>2020-10-11T08:21:02Z</time></trkpt>
<trkpt lat="42.553135967" lon="12.683925871"><ele>233</ele><time>2020-10-11T08:21:05Z</time></trkpt>
<trkpt lat="42.553164298" lon="12.684116056"><ele>234</ele><time>2020-10-11T08:21:11Z</time></trkpt>
<trkpt lat="42.553173266" lon="12.684148913"><ele>234</ele><time>2020-10-11T08:21:12Z</time></trkpt>
<trkpt lat="42.553226156" lon="12.684335578"><ele>235</ele><time>2020-10-11T08:21:18Z</time></trkpt>
<trkpt lat="42.553245351" lon="12.684395928"><ele>235</ele><time>2020-10-11T08:21:20Z</time></trkpt>
<trkpt lat="42.553284829" lon="12.684588544"><ele>237</ele><time>2020-10-11T08:21:26Z</time></trkpt>
<trkpt lat="42.553302599" lon="12.684782837"><ele>238</ele><time>2020-10-11T08:21:32Z</time></trkpt>
<trkpt lat="42.553296899" lon="12.68481561"><ele>238</ele><time>2020-10-11T08:21:33Z</time></trkpt>
<trkpt lat="42.553266305" lon="12.684946368"><ele>239</ele><time>2020-10-11T08:21:37Z</time></trkpt>
<trkpt lat="42.55324116" lon="12.685003867"><ele>239</ele><time>2020-10-11T08:21:39Z</time></trkpt>
<trkpt lat="42.553173685" lon="12.685210984"><ele>239</ele><time>2020-10-11T08:21:45Z</time></trkpt>
<trkpt lat="42.553157257" lon="12.68528726"><ele>240</ele><time>2020-10-11T08:21:47Z</time></trkpt>
<trkpt lat="42.5530871" lon="12.685427824"><ele>240</ele><time>2020-10-11T08:21:51Z</time></trkpt>
<trkpt lat="42.552932454" lon="12.685604263"><ele>239</ele><time>2020-10-11T08:21:57Z</time></trkpt>
<trkpt lat="42.552881828" lon="12.685660925"><ele>239</ele><time>2020-10-11T08:21:59Z</time></trkpt>
<trkpt lat="42.552756518" lon="12.6858004"><ele>238</ele><time>2020-10-11T08:22:04Z</time></trkpt>
<trkpt lat="42.552655684" lon="12.685915567"><ele>238</ele><time>2020-10-11T08:22:08Z</time></trkpt>
<trkpt lat="42.552606734" lon="12.68597642"><ele>237</ele><time>2020-10-11T08:22:10Z</time></trkpt>
<trkpt lat="42.552447058" lon="12.686147746"><ele>237</ele><time>2020-10-11T08:22:16Z</time></trkpt>
<trkpt lat="42.552416967" lon="12.686169371"><ele>237</ele><time>2020-10-11T08:22:17Z</time></trkpt>
<trkpt lat="42.552192165" lon="12.68629007"><ele>235</ele><time>2020-10-11T08:22:24Z</time></trkpt>
<trkpt lat="42.552159475" lon="12.686302308"><ele>235</ele><time>2020-10-11T08:22:25Z</time></trkpt>
<trkpt lat="42.552013295" lon="12.686339943"><ele>234</ele><time>2020-10-11T08:22:29Z</time></trkpt>
<trkpt lat="42.551942132" lon="12.686357377"><ele>234</ele><time>2020-10-11T08:22:31Z</time></trkpt>
<trkpt lat="42.551908856" lon="12.686367519"><ele>234</ele><time>2020-10-11T08:22:32Z</time></trkpt>
<trkpt lat="42.551778601" lon="12.686422253"><ele>233</ele><time>2020-10-11T08:22:36Z</time></trkpt>
<trkpt lat="42.551686568" lon="12.686480004"><ele>233</ele><time>2020-10-11T08:22:39Z</time></trkpt>
<trkpt lat="42.551561678" lon="12.686556363"><ele>232</ele><time>2020-10-11T08:22:43Z</time></trkpt>
<trkpt lat="42.551531419" lon="12.686573043"><ele>232</ele><time>2020-10-11T08:22:44Z</time></trkpt>
<trkpt lat="42.551466208" lon="12.686603973"><ele>232</ele><time>2020-10-11T08:22:46Z</time></trkpt>
<trkpt lat="42.551288344" lon="12.686734311"><ele>231</ele><time>2020-10-11T08:22:52Z</time></trkpt>
<trkpt lat="42.551261438" lon="12.686761552"><ele>231</ele><time>2020-10-11T08:22:53Z</time></trkpt>
<trkpt lat="42.551233694" lon="12.686787201"><ele>231</ele><time>2020-10-11T08:22:54Z</time></trkpt>
<trkpt lat="42.551074689" lon="12.686954336"><ele>230</ele><time>2020-10-11T08:23:01Z</time></trkpt>
<trkpt lat="42.550920043" lon="12.68714603"><ele>229</ele><time>2020-10-11T08:23:06Z</time></trkpt>
<trkpt lat="42.550896909" lon="12.687177965"><ele>229</ele><time>2020-10-11T08:23:07Z</time></trkpt>
<trkpt lat="42.550834296" lon="12.687310483"><ele>228</ele><time>2020-10-11T08:23:11Z</time></trkpt>
<trkpt lat="42.550806301" lon="12.68739447"><ele>227</ele><time>2020-10-11T08:23:13Z</time></trkpt>
<trkpt lat="42.550773192" lon="12.687634947"><ele>227</ele><time>2020-10-11T08:23:19Z</time></trkpt>
<trkpt lat="42.550738407" lon="12.687792946"><ele>227</ele><time>2020-10-11T08:23:23Z</time></trkpt>
<trkpt lat="42.550725248" lon="12.687832508"><ele>227</ele><time>2020-10-11T08:23:24Z</time></trkpt>
<trkpt lat="42.550711418" lon="12.687868215"><ele>227</ele><time>2020-10-11T08:23:25Z</time></trkpt>
<trkpt lat="42.550615529" lon="12.688036691"><ele>226</ele><time>2020-10-11T08:23:30Z</time></trkpt>
<trkpt lat="42.550450908" lon="12.688180525"><ele>226</ele><time>2020-10-11T08:23:36Z</time></trkpt>
<trkpt lat="42.550420817" lon="12.688197875"><ele>226</ele><time>2020-10-11T08:23:37Z</time></trkpt>
<trkpt lat="42.550253766" lon="12.688301643"><ele>226</ele><time>2020-10-11T08:23:43Z</time></trkpt>
<trkpt lat="42.550070286" lon="12.688415302"><ele>227</ele><time>2020-10-11T08:23:50Z</time></trkpt>
<trkpt lat="42.55004623" lon="12.68842754"><ele>227</ele><time>2020-10-11T08:23:51Z</time></trkpt>
<trkpt lat="42.549941624" lon="12.688517896"><ele>228</ele><time>2020-10-11T08:23:57Z</time></trkpt>
<trkpt lat="42.549924608" lon="12.688581683"><ele>228</ele><time>2020-10-11T08:23:59Z</time></trkpt>
<trkpt lat="42.549891835" lon="12.688711686"><ele>229</ele><time>2020-10-11T08:24:03Z</time></trkpt>
<trkpt lat="42.549880436" lon="12.688745046"><ele>229</ele><time>2020-10-11T08:24:04Z</time></trkpt>
<trkpt lat="42.549814805" lon="12.688918384"><ele>230</ele><time>2020-10-11T08:24:10Z</time></trkpt>
<trkpt lat="42.549803322" lon="12.68894596"><ele>230</ele><time>2020-10-11T08:24:11Z</time></trkpt>
<trkpt lat="42.549757473" lon="12.689120052"><ele>231</ele><time>2020-10-11T08:24:16Z</time></trkpt>
<trkpt lat="42.549748337" lon="12.689196412"><ele>231</ele><time>2020-10-11T08:24:18Z</time></trkpt>
<trkpt lat="42.549734758" lon="12.689336892"><ele>232</ele><time>2020-10-11T08:24:22Z</time></trkpt>
<trkpt lat="42.549720258" lon="12.689442504"><ele>232</ele><time>2020-10-11T08:24:25Z</time></trkpt>
<trkpt lat="42.549711792" lon="12.689479301"><ele>232</ele><time>2020-10-11T08:24:26Z</time></trkpt>
<trkpt lat="42.549722018" lon="12.689733105"><ele>233</ele><time>2020-10-11T08:24:33Z</time></trkpt>
<trkpt lat="42.549744397" lon="12.689865371"><ele>233</ele><time>2020-10-11T08:24:37Z</time></trkpt>
<trkpt lat="42.549780607" lon="12.68995313"><ele>233</ele><time>2020-10-11T08:24:40Z</time></trkpt>
<trkpt lat="42.549800808" lon="12.690197546"><ele>234</ele><time>2020-10-11T08:24:47Z</time></trkpt>
<trkpt lat="42.549800221" lon="12.690235013"><ele>234</ele><time>2020-10-11T08:24:48Z</time></trkpt>
<trkpt lat="42.549809022" lon="12.690443806"><ele>235</ele><time>2020-10-11T08:24:54Z</time></trkpt>
<trkpt lat="42.549828636" lon="12.690609433"><ele>235</ele><time>2020-10-11T08:24:59Z</time></trkpt>
<trkpt lat="42.549815057" lon="12.690751422"><ele>236</ele><time>2020-10-11T08:25:03Z</time></trkpt>
<trkpt lat="42.549784211" lon="12.690854771"><ele>236</ele><time>2020-10-11T08:25:06Z</time></trkpt>
<trkpt lat="42.549721934" lon="12.690988127"><ele>237</ele><time>2020-10-11T08:25:10Z</time></trkpt>
<trkpt lat="42.549698297" lon="12.691089381"><ele>237</ele><time>2020-10-11T08:25:13Z</time></trkpt>
<trkpt lat="42.549703578" lon="12.691121735"><ele>237</ele><time>2020-10-11T08:25:14Z</time></trkpt>
<trkpt lat="42.549720341" lon="12.691151407"><ele>237</ele><time>2020-10-11T08:25:15Z</time></trkpt>
<trkpt lat="42.54982545" lon="12.691270681"><ele>237</ele><time>2020-10-11T08:25:20Z</time></trkpt>
<trkpt lat="42.549947742" lon="12.691468913"><ele>238</ele><time>2020-10-11T08:25:28Z</time></trkpt>
<trkpt lat="42.549972972" lon="12.691553067"><ele>238</ele><time>2020-10-11T08:25:31Z</time></trkpt>
<trkpt lat="42.549967021" lon="12.691615764"><ele>239</ele><time>2020-10-11T08:25:34Z</time></trkpt>
<trkpt lat="42.549922094" lon="12.691732608"><ele>238</ele><time>2020-10-11T08:25:39Z</time></trkpt>
<trkpt lat="42.549846405" lon="12.691934444"><ele>237</ele><time>2020-10-11T08:25:47Z</time></trkpt>
<trkpt lat="42.549836263" lon="12.692057574"><ele>236</ele><time>2020-10-11T08:25:51Z</time></trkpt>
<trkpt lat="42.549822852" lon="12.692130413"><ele>235</ele><time>2020-10-11T08:25:53Z</time></trkpt>
<trkpt lat="42.549804915" lon="12.692170897"><ele>235</ele><time>2020-10-11T08:25:54Z</time></trkpt>
<trkpt lat="42.549762754" lon="12.692322526"><ele>234</ele><time>2020-10-11T08:25:58Z</time></trkpt>
<trkpt lat="42.549755378" lon="12.692356557"><ele>234</ele><time>2020-10-11T08:25:59Z</time></trkpt>
<trkpt lat="42.549754456" lon="12.692555627"><ele>233</ele><time>2020-10-11T08:26:04Z</time></trkpt>
<trkpt lat="42.549756551" lon="12.692598039"><ele>232</ele><time>2020-10-11T08:26:05Z</time></trkpt>
<trkpt lat="42.549749427" lon="12.692771796"><ele>231</ele><time>2020-10-11T08:26:09Z</time></trkpt>
<trkpt lat="42.549735261" lon="12.692907583"><ele>230</ele><time>2020-10-11T08:26:12Z</time></trkpt>
<trkpt lat="42.549729561" lon="12.692953432"><ele>230</ele><time>2020-10-11T08:26:13Z</time></trkpt>
<trkpt lat="42.549719168" lon="12.693055607"><ele>229</ele><time>2020-10-11T08:26:15Z</time></trkpt>
<trkpt lat="42.54972931" lon="12.693140265"><ele>229</ele><time>2020-10-11T08:26:17Z</time></trkpt>
<trkpt lat="42.549745655" lon="12.693220563"><ele>228</ele><time>2020-10-11T08:26:19Z</time></trkpt>
<trkpt lat="42.549762586" lon="12.693374371"><ele>227</ele><time>2020-10-11T08:26:23Z</time></trkpt>
<trkpt lat="42.549768202" lon="12.693412844"><ele>227</ele><time>2020-10-11T08:26:24Z</time></trkpt>
<trkpt lat="42.549782451" lon="12.693494819"><ele>226</ele><time>2020-10-11T08:26:27Z</time></trkpt>
<trkpt lat="42.549788235" lon="12.693558102"><ele>226</ele><time>2020-10-11T08:26:30Z</time></trkpt>
<trkpt lat="42.549793515" lon="12.693686932"><ele>225</ele><time>2020-10-11T08:26:34Z</time></trkpt>
<trkpt lat="42.549802316" lon="12.693726495"><ele>224</ele><time>2020-10-11T08:26:35Z</time></trkpt>
<trkpt lat="42.549835173" lon="12.693854738"><ele>223</ele><time>2020-10-11T08:26:38Z</time></trkpt>
<trkpt lat="42.549854787" lon="12.693984155"><ele>223</ele><time>2020-10-11T08:26:41Z</time></trkpt>
<trkpt lat="42.549890745" lon="12.694156654"><ele>222</ele><time>2020-10-11T08:26:45Z</time></trkpt>
<trkpt lat="42.549909018" lon="12.69429177"><ele>221</ele><time>2020-10-11T08:26:48Z</time></trkpt>
<trkpt lat="42.549920836" lon="12.694469132"><ele>220</ele><time>2020-10-11T08:26:52Z</time></trkpt>
<trkpt lat="42.549928464" lon="12.694554124"><ele>219</ele><time>2020-10-11T08:26:54Z</time></trkpt>
<trkpt lat="42.549925949" lon="12.69466443"><ele>219</ele><time>2020-10-11T08:26:57Z</time></trkpt>
<trkpt lat="42.549927961" lon="12.694701478"><ele>218</ele><time>2020-10-11T08:26:59Z</time></trkpt>
<trkpt lat="42.549943971" lon="12.694980679"><ele>217</ele><time>2020-10-11T08:27:32Z</time></trkpt>
<trkpt lat="42.54994791" lon="12.695034491"><ele>217</ele><time>2020-10-11T08:27:33Z</time></trkpt>
<trkpt lat="42.549967356" lon="12.695240686"><ele>216</ele><time>2020-10-11T08:27:37Z</time></trkpt>
<trkpt lat="42.549992669" lon="12.695384016"><ele>215</ele><time>2020-10-11T08:27:40Z</time></trkpt>
<trkpt lat="42.550006248" lon="12.695434978"><ele>215</ele><time>2020-10-11T08:27:41Z</time></trkpt>
<trkpt lat="42.55004514" lon="12.695575459"><ele>214</ele><time>2020-10-11T08:27:44Z</time></trkpt>
<trkpt lat="42.550098784" lon="12.695640419"><ele>213</ele><time>2020-10-11T08:27:46Z</time></trkpt>
<trkpt lat="42.550199116" lon="12.695651567"><ele>213</ele><time>2020-10-11T08:27:49Z</time></trkpt>
<trkpt lat="42.550214119" lon="12.695627259"><ele>212</ele><time>2020-10-11T08:27:50Z</time></trkpt>
<trkpt lat="42.550216634" lon="12.695590379"><ele>212</ele><time>2020-10-11T08:27:51Z</time></trkpt>
<trkpt lat="42.550201379" lon="12.69549734"><ele>211</ele><time>2020-10-11T08:27:53Z</time></trkpt>
<trkpt lat="42.550166426" lon="12.695294498"><ele>211</ele><time>2020-10-11T08:27:57Z</time></trkpt>
<trkpt lat="42.550159302" lon="12.695151335"><ele>211</ele><time>2020-10-11T08:28:00Z</time></trkpt>
<trkpt lat="42.55015159" lon="12.69501714"><ele>210</ele><time>2020-10-11T08:28:03Z</time></trkpt>
<trkpt lat="42.550157877" lon="12.694878755"><ele>209</ele><time>2020-10-11T08:28:06Z</time></trkpt>
<trkpt lat="42.550158883" lon="12.694831733"><ele>209</ele><time>2020-10-11T08:28:07Z</time></trkpt>
<trkpt lat="42.550166091" lon="12.694637859"><ele>208</ele><time>2020-10-11T08:28:11Z</time></trkpt>
<trkpt lat="42.550169947" lon="12.694503833"><ele>207</ele><time>2020-10-11T08:28:14Z</time></trkpt>
<trkpt lat="42.550183861" lon="12.694414482"><ele>207</ele><time>2020-10-11T08:28:16Z</time></trkpt>
<trkpt lat="42.550255274" lon="12.694230918"><ele>205</ele><time>2020-10-11T08:28:20Z</time></trkpt>
<trkpt lat="42.550397012" lon="12.694133436"><ele>204</ele><time>2020-10-11T08:28:24Z</time></trkpt>
<trkpt lat="42.550432635" lon="12.694114326"><ele>204</ele><time>2020-10-11T08:28:25Z</time></trkpt>
<trkpt lat="42.55063598" lon="12.694026064"><ele>203</ele><time>2020-10-11T08:28:31Z</time></trkpt>
<trkpt lat="42.550669173" lon="12.694012234"><ele>203</ele><time>2020-10-11T08:28:32Z</time></trkpt>
<trkpt lat="42.550703119" lon="12.693998823"><ele>203</ele><time>2020-10-11T08:28:33Z</time></trkpt>
<trkpt lat="42.55088157" lon="12.693943083"><ele>202</ele><time>2020-10-11T08:28:38Z</time></trkpt>
<trkpt lat="42.55098165" lon="12.69391031"><ele>201</ele><time>2020-10-11T08:28:41Z</time></trkpt>
<trkpt lat="42.551117856" lon="12.693864293"><ele>201</ele><time>2020-10-11T08:28:45Z</time></trkpt>
<trkpt lat="42.551207626" lon="12.693846608"><ele>200</ele><time>2020-10-11T08:28:48Z</time></trkpt>
<trkpt lat="42.55123361" lon="12.693846608"><ele>200</ele><time>2020-10-11T08:28:49Z</time></trkpt>
<trkpt lat="42.551403511" lon="12.693842249"><ele>199</ele><time>2020-10-11T08:28:54Z</time></trkpt>
<trkpt lat="42.551440727" lon="12.693842333"><ele>198</ele><time>2020-10-11T08:28:55Z</time></trkpt>
<trkpt lat="42.551583303" lon="12.693823222"><ele>197</ele><time>2020-10-11T08:28:59Z</time></trkpt>
<trkpt lat="42.551686568" lon="12.693801597"><ele>197</ele><time>2020-10-11T08:29:02Z</time></trkpt>
<trkpt lat="42.551758569" lon="12.693798495"><ele>196</ele><time>2020-10-11T08:29:04Z</time></trkpt>
<trkpt lat="42.551895948" lon="12.693783659"><ele>195</ele><time>2020-10-11T08:29:08Z</time></trkpt>
<trkpt lat="42.552028969" lon="12.693769326"><ele>194</ele><time>2020-10-11T08:29:12Z</time></trkpt>
<trkpt lat="42.552126031" lon="12.693746947"><ele>193</ele><time>2020-10-11T08:29:15Z</time></trkpt>
<trkpt lat="42.552188812" lon="12.693743259"><ele>193</ele><time>2020-10-11T08:29:17Z</time></trkpt>
<trkpt lat="42.552283444" lon="12.693742421"><ele>192</ele><time>2020-10-11T08:29:20Z</time></trkpt>
<trkpt lat="42.552477485" lon="12.69374636"><ele>193</ele><time>2020-10-11T08:29:26Z</time></trkpt>
<trkpt lat="42.552510845" lon="12.693753652"><ele>193</ele><time>2020-10-11T08:29:27Z</time></trkpt>
<trkpt lat="42.552593909" lon="12.69386882"><ele>193</ele><time>2020-10-11T08:29:31Z</time></trkpt>
<trkpt lat="42.55258712" lon="12.694134945"><ele>193</ele><time>2020-10-11T08:29:37Z</time></trkpt>
<trkpt lat="42.552584438" lon="12.694177609"><ele>193</ele><time>2020-10-11T08:29:38Z</time></trkpt>
<trkpt lat="42.552583013" lon="12.694261512"><ele>194</ele><time>2020-10-11T08:29:40Z</time></trkpt>
<trkpt lat="42.552567841" lon="12.694466198"><ele>194</ele><time>2020-10-11T08:29:45Z</time></trkpt>
<trkpt lat="42.552560046" lon="12.694703992"><ele>193</ele><time>2020-10-11T08:29:51Z</time></trkpt>
<trkpt lat="42.552564405" lon="12.694786889"><ele>193</ele><time>2020-10-11T08:29:53Z</time></trkpt>
<trkpt lat="42.552560046" lon="12.694912283"><ele>194</ele><time>2020-10-11T08:29:56Z</time></trkpt>
<trkpt lat="42.552564656" lon="12.695078747"><ele>194</ele><time>2020-10-11T08:30:00Z</time></trkpt>
<trkpt lat="42.552598352" lon="12.695353003"><ele>194</ele><time>2020-10-11T08:30:07Z</time></trkpt>
<trkpt lat="42.552647889" lon="12.695627343"><ele>194</ele><time>2020-10-11T08:30:14Z</time></trkpt>
<trkpt lat="42.552676136" lon="12.695770841"><ele>194</ele><time>2020-10-11T08:30:18Z</time></trkpt>
<trkpt lat="42.552717375" lon="12.695988519"><ele>195</ele><time>2020-10-11T08:30:24Z</time></trkpt>
<trkpt lat="42.552736318" lon="12.696061274"><ele>195</ele><time>2020-10-11T08:30:26Z</time></trkpt>
<trkpt lat="42.5527851" lon="12.696272414"><ele>196</ele><time>2020-10-11T08:30:32Z</time></trkpt>
<trkpt lat="42.552835559" lon="12.696528146"><ele>195</ele><time>2020-10-11T08:30:39Z</time></trkpt>
<trkpt lat="42.552842265" lon="12.696563601"><ele>195</ele><time>2020-10-11T08:30:40Z</time></trkpt>
<trkpt lat="42.55289901" lon="12.696819166"><ele>194</ele><time>2020-10-11T08:30:47Z</time></trkpt>
<trkpt lat="42.552914517" lon="12.696893848"><ele>194</ele><time>2020-10-11T08:30:49Z</time></trkpt>
<trkpt lat="42.552976627" lon="12.697143545"><ele>195</ele><time>2020-10-11T08:30:56Z</time></trkpt>
<trkpt lat="42.5529892" lon="12.697176822"><ele>195</ele><time>2020-10-11T08:30:57Z</time></trkpt>
<trkpt lat="42.553065643" lon="12.697422579"><ele>195</ele><time>2020-10-11T08:31:04Z</time></trkpt>
<trkpt lat="42.553083329" lon="12.697498016"><ele>195</ele><time>2020-10-11T08:31:06Z</time></trkpt>
<trkpt lat="42.553154742" lon="12.697722651"><ele>195</ele><time>2020-10-11T08:31:12Z</time></trkpt>
<trkpt lat="42.553164884" lon="12.697760034"><ele>195</ele><time>2020-10-11T08:31:13Z</time></trkpt>
<trkpt lat="42.553236047" lon="12.698024483"><ele>196</ele><time>2020-10-11T08:31:20Z</time></trkpt>
<trkpt lat="42.553249206" lon="12.698060526"><ele>196</ele><time>2020-10-11T08:31:21Z</time></trkpt>
<trkpt lat="42.553309053" lon="12.698282059"><ele>196</ele><time>2020-10-11T08:31:27Z</time></trkpt>
<trkpt lat="42.553353393" lon="12.698505353"><ele>196</ele><time>2020-10-11T08:31:33Z</time></trkpt>
<trkpt lat="42.553361775" lon="12.698540557"><ele>196</ele><time>2020-10-11T08:31:34Z</time></trkpt>
<trkpt lat="42.553407624" lon="12.698804755"><ele>197</ele><time>2020-10-11T08:31:41Z</time></trkpt>
<trkpt lat="42.553446097" lon="12.699008435"><ele>196</ele><time>2020-10-11T08:31:47Z</time></trkpt>
<trkpt lat="42.553479876" lon="12.699112957"><ele>197</ele><time>2020-10-11T08:31:50Z</time></trkpt>
<trkpt lat="42.55349136" lon="12.699146988"><ele>197</ele><time>2020-10-11T08:31:51Z</time></trkpt>
<trkpt lat="42.553521451" lon="12.699242709"><ele>198</ele><time>2020-10-11T08:31:54Z</time></trkpt>
<trkpt lat="42.553543998" lon="12.699503219"><ele>197</ele><time>2020-10-11T08:32:01Z</time></trkpt>
<trkpt lat="42.553532515" lon="12.699676221"><ele>198</ele><time>2020-10-11T08:32:06Z</time></trkpt>
<trkpt lat="42.553614825" lon="12.699895157"><ele>198</ele><time>2020-10-11T08:32:13Z</time></trkpt>
<trkpt lat="42.553611053" lon="12.699975874"><ele>198</ele><time>2020-10-11T08:32:15Z</time></trkpt>
<trkpt lat="42.553605773" lon="12.700178716"><ele>199</ele><time>2020-10-11T08:32:20Z</time></trkpt>
<trkpt lat="42.553606359" lon="12.700326405"><ele>199</ele><time>2020-10-11T08:32:24Z</time></trkpt>
<trkpt lat="42.553599235" lon="12.700410895"><ele>200</ele><time>2020-10-11T08:32:26Z</time></trkpt>
<trkpt lat="42.5535932" lon="12.7004549"><ele>200</ele><time>2020-10-11T08:32:27Z</time></trkpt>
<trkpt lat="42.553581297" lon="12.700707195"><ele>200</ele><time>2020-10-11T08:32:34Z</time></trkpt>
<trkpt lat="42.553611053" lon="12.700974327"><ele>199</ele><time>2020-10-11T08:32:41Z</time></trkpt>
<trkpt lat="42.55365992" lon="12.701228131"><ele>199</ele><time>2020-10-11T08:32:48Z</time></trkpt>
<trkpt lat="42.553682886" lon="12.701475648"><ele>200</ele><time>2020-10-11T08:32:55Z</time></trkpt>
<trkpt lat="42.553690262" lon="12.701551504"><ele>200</ele><time>2020-10-11T08:32:57Z</time></trkpt>
<trkpt lat="42.553720437" lon="12.70182048"><ele>200</ele><time>2020-10-11T08:33:04Z</time></trkpt>
<trkpt lat="42.553723119" lon="12.701860126"><ele>200</ele><time>2020-10-11T08:33:05Z</time></trkpt>
<trkpt lat="42.553726807" lon="12.702085767"><ele>201</ele><time>2020-10-11T08:33:11Z</time></trkpt>
<trkpt lat="42.553725047" lon="12.702161372"><ele>201</ele><time>2020-10-11T08:33:13Z</time></trkpt>
<trkpt lat="42.55371918" lon="12.702357844"><ele>202</ele><time>2020-10-11T08:33:18Z</time></trkpt>
<trkpt lat="42.553712139" lon="12.702471586"><ele>202</ele><time>2020-10-11T08:33:21Z</time></trkpt>
<trkpt lat="42.553701745" lon="12.702585831"><ele>202</ele><time>2020-10-11T08:33:24Z</time></trkpt>
<trkpt lat="42.553698476" lon="12.702854136"><ele>203</ele><time>2020-10-11T08:33:31Z</time></trkpt>
<trkpt lat="42.5537025" lon="12.703041807"><ele>203</ele><time>2020-10-11T08:33:36Z</time></trkpt>
<trkpt lat="42.553714737" lon="12.703184718"><ele>203</ele><time>2020-10-11T08:33:40Z</time></trkpt>
<trkpt lat="42.553729406" lon="12.703443468"><ele>204</ele><time>2020-10-11T08:33:47Z</time></trkpt>
<trkpt lat="42.553734183" lon="12.703479677"><ele>204</ele><time>2020-10-11T08:33:48Z</time></trkpt>
<trkpt lat="42.553757066" lon="12.703665756"><ele>204</ele><time>2020-10-11T08:33:53Z</time></trkpt>
<trkpt lat="42.553767795" lon="12.703743707"><ele>204</ele><time>2020-10-11T08:33:55Z</time></trkpt>
<trkpt lat="42.553818924" lon="12.70400933"><ele>205</ele><time>2020-10-11T08:34:02Z</time></trkpt>
<trkpt lat="42.553824876" lon="12.704045624"><ele>205</ele><time>2020-10-11T08:34:03Z</time></trkpt>
<trkpt lat="42.553867791" lon="12.704301775"><ele>205</ele><time>2020-10-11T08:34:10Z</time></trkpt>
<trkpt lat="42.553913556" lon="12.704441333"><ele>205</ele><time>2020-10-11T08:34:14Z</time></trkpt>
<trkpt lat="42.553926464" lon="12.70446958"><ele>205</ele><time>2020-10-11T08:34:15Z</time></trkpt>
<trkpt lat="42.554045403" lon="12.70463814"><ele>206</ele><time>2020-10-11T08:34:21Z</time></trkpt>
<trkpt lat="42.554113297" lon="12.704711985"><ele>206</ele><time>2020-10-11T08:34:24Z</time></trkpt>
<trkpt lat="42.554239361" lon="12.70483017"><ele>206</ele><time>2020-10-11T08:34:29Z</time></trkpt>
<trkpt lat="42.554402556" lon="12.704929914"><ele>207</ele><time>2020-10-11T08:34:35Z</time></trkpt>
<trkpt lat="42.554563824" lon="12.704982301"><ele>207</ele><time>2020-10-11T08:34:41Z</time></trkpt>
<trkpt lat="42.5546489" lon="12.705033012"><ele>207</ele><time>2020-10-11T08:34:45Z</time></trkpt>
<trkpt lat="42.554719141" lon="12.705080286"><ele>207</ele><time>2020-10-11T08:34:48Z</time></trkpt>
<trkpt lat="42.554882756" lon="12.705233339"><ele>208</ele><time>2020-10-11T08:34:55Z</time></trkpt>
<trkpt lat="42.555056093" lon="12.70538589"><ele>208</ele><time>2020-10-11T08:35:02Z</time></trkpt>
<trkpt lat="42.555205207" lon="12.705579428"><ele>208</ele><time>2020-10-11T08:35:09Z</time></trkpt>
<trkpt lat="42.555324649" lon="12.705810517"><ele>209</ele><time>2020-10-11T08:35:16Z</time></trkpt>
<trkpt lat="42.555393465" lon="12.706025681"><ele>209</ele><time>2020-10-11T08:35:22Z</time></trkpt>
<trkpt lat="42.555412576" lon="12.706265654"><ele>210</ele><time>2020-10-11T08:35:28Z</time></trkpt>
<trkpt lat="42.555419281" lon="12.706509735"><ele>210</ele><time>2020-10-11T08:35:34Z</time></trkpt>
<trkpt lat="42.555415509" lon="12.706552232"><ele>210</ele><time>2020-10-11T08:35:35Z</time></trkpt>
<trkpt lat="42.555391202" lon="12.706804024"><ele>211</ele><time>2020-10-11T08:35:41Z</time></trkpt>
<trkpt lat="42.555394387" lon="12.706883568"><ele>211</ele><time>2020-10-11T08:35:43Z</time></trkpt>
<trkpt lat="42.555379886" lon="12.707129074"><ele>211</ele><time>2020-10-11T08:35:49Z</time></trkpt>
<trkpt lat="42.555378294" lon="12.707170565"><ele>211</ele><time>2020-10-11T08:35:50Z</time></trkpt>
<trkpt lat="42.555374857" lon="12.707252288"><ele>212</ele><time>2020-10-11T08:35:52Z</time></trkpt>
<trkpt lat="42.555370163" lon="12.70748606"><ele>212</ele><time>2020-10-11T08:35:58Z</time></trkpt>
<trkpt lat="42.555381563" lon="12.707719915"><ele>212</ele><time>2020-10-11T08:36:04Z</time></trkpt>
<trkpt lat="42.555391872" lon="12.707868945"><ele>213</ele><time>2020-10-11T08:36:08Z</time></trkpt>
<trkpt lat="42.555394219" lon="12.707943041"><ele>213</ele><time>2020-10-11T08:36:10Z</time></trkpt>
<trkpt lat="42.555403775" lon="12.708201539"><ele>213</ele><time>2020-10-11T08:36:17Z</time></trkpt>
<trkpt lat="42.555405032" lon="12.70823909"><ele>213</ele><time>2020-10-11T08:36:18Z</time></trkpt>
<trkpt lat="42.555441242" lon="12.708484177"><ele>213</ele><time>2020-10-11T08:36:25Z</time></trkpt>
<trkpt lat="42.555454904" lon="12.708754828"><ele>214</ele><time>2020-10-11T08:36:32Z</time></trkpt>
<trkpt lat="42.555456916" lon="12.708829176"><ele>214</ele><time>2020-10-11T08:36:34Z</time></trkpt>
<trkpt lat="42.555447109" lon="12.709055822"><ele>215</ele><time>2020-10-11T08:36:40Z</time></trkpt>
<trkpt lat="42.5554456" lon="12.709092954"><ele>215</ele><time>2020-10-11T08:36:41Z</time></trkpt>
<trkpt lat="42.555411402" lon="12.709355978"><ele>216</ele><time>2020-10-11T08:36:48Z</time></trkpt>
<trkpt lat="42.555345604" lon="12.709603077"><ele>216</ele><time>2020-10-11T08:36:55Z</time></trkpt>
<trkpt lat="42.555314675" lon="12.709712712"><ele>217</ele><time>2020-10-11T08:36:58Z</time></trkpt>
<trkpt lat="42.555257091" lon="12.709924439"><ele>218</ele><time>2020-10-11T08:37:04Z</time></trkpt>
<trkpt lat="42.555189952" lon="12.710173298"><ele>218</ele><time>2020-10-11T08:37:11Z</time></trkpt>
<trkpt lat="42.555178721" lon="12.710206741"><ele>218</ele><time>2020-10-11T08:37:12Z</time></trkpt>
<trkpt lat="42.555104541" lon="12.710336493"><ele>219</ele><time>2020-10-11T08:37:16Z</time></trkpt>
<trkpt lat="42.555079143" lon="12.710344959"><ele>219</ele><time>2020-10-11T08:37:17Z</time></trkpt>
<trkpt lat="42.554912595" lon="12.710318724"><ele>218</ele><time>2020-10-11T08:37:22Z</time></trkpt>
<trkpt lat="42.554813437" lon="12.710301541"><ele>217</ele><time>2020-10-11T08:37:25Z</time></trkpt>
<trkpt lat="42.554787118" lon="12.710313946"><ele>216</ele><time>2020-10-11T08:37:26Z</time></trkpt>
<trkpt lat="42.554761386" lon="12.710334314"><ele>216</ele><time>2020-10-11T08:37:27Z</time></trkpt>
<trkpt lat="42.554716878" lon="12.710421067"><ele>214</ele><time>2020-10-11T08:37:30Z</time></trkpt>
<trkpt lat="42.554733725" lon="12.710562972"><ele>214</ele><time>2020-10-11T08:37:34Z</time></trkpt>
<trkpt lat="42.554726936" lon="12.710785344"><ele>214</ele><time>2020-10-11T08:37:41Z</time></trkpt>
<trkpt lat="42.554710256" lon="12.710812083"><ele>215</ele><time>2020-10-11T08:37:42Z</time></trkpt>
<trkpt lat="42.554678069" lon="12.710853238"><ele>215</ele><time>2020-10-11T08:37:44Z</time></trkpt>
<trkpt lat="42.554638172" lon="12.710875198"><ele>215</ele><time>2020-10-11T08:37:46Z</time></trkpt>
<trkpt lat="42.554483106" lon="12.710859021"><ele>215</ele><time>2020-10-11T08:37:53Z</time></trkpt>
<trkpt lat="42.554439269" lon="12.710859776"><ele>216</ele><time>2020-10-11T08:37:55Z</time></trkpt>
<trkpt lat="42.554381015" lon="12.710865894"><ele>217</ele><time>2020-10-11T08:37:59Z</time></trkpt>
<trkpt lat="42.55436752" lon="12.710869666"><ele>217</ele><time>2020-10-11T08:38:00Z</time></trkpt>
<trkpt lat="42.554310272" lon="12.71089498"><ele>218</ele><time>2020-10-11T08:38:05Z</time></trkpt>
<trkpt lat="42.554291077" lon="12.710901098"><ele>218</ele><time>2020-10-11T08:38:06Z</time></trkpt>
<trkpt lat="42.554271463" lon="12.710905625"><ele>218</ele><time>2020-10-11T08:38:07Z</time></trkpt>
<trkpt lat="42.554219076" lon="12.710926495"><ele>219</ele><time>2020-10-11T08:38:10Z</time></trkpt>
<trkpt lat="42.55413861" lon="12.710949965"><ele>220</ele><time>2020-10-11T08:38:15Z</time></trkpt>
<trkpt lat="42.554094857" lon="12.71100143"><ele>220</ele><time>2020-10-11T08:38:17Z</time></trkpt>
<trkpt lat="42.554062586" lon="12.711042166"><ele>221</ele><time>2020-10-11T08:38:19Z</time></trkpt>
<trkpt lat="42.554036854" lon="12.711089859"><ele>221</ele><time>2020-10-11T08:38:21Z</time></trkpt>
<trkpt lat="42.554027885" lon="12.711117687"><ele>221</ele><time>2020-10-11T08:38:22Z</time></trkpt>
<trkpt lat="42.554027215" lon="12.711159177"><ele>222</ele><time>2020-10-11T08:38:24Z</time></trkpt>
<trkpt lat="42.554052277" lon="12.711176695"><ele>222</ele><time>2020-10-11T08:38:26Z</time></trkpt>
<trkpt lat="42.554126708" lon="12.711179797"><ele>222</ele><time>2020-10-11T08:38:30Z</time></trkpt>
<trkpt lat="42.554247407" lon="12.711217264"><ele>223</ele><time>2020-10-11T08:38:35Z</time></trkpt>
<trkpt lat="42.554325359" lon="12.711269399"><ele>223</ele><time>2020-10-11T08:38:40Z</time></trkpt>
<trkpt lat="42.55440725" lon="12.711326899"><ele>223</ele><time>2020-10-11T08:38:45Z</time></trkpt>
<trkpt lat="42.554425187" lon="12.711338717"><ele>223</ele><time>2020-10-11T08:38:46Z</time></trkpt>
<trkpt lat="42.554445304" lon="12.711348273"><ele>223</ele><time>2020-10-11T08:38:47Z</time></trkpt>
<trkpt lat="42.554586539" lon="12.711437624"><ele>223</ele><time>2020-10-11T08:38:53Z</time></trkpt>
<trkpt lat="42.554690726" lon="12.71153938"><ele>223</ele><time>2020-10-11T08:38:57Z</time></trkpt>
<trkpt lat="42.554687206" lon="12.71157953"><ele>223</ele><time>2020-10-11T08:38:58Z</time></trkpt>
<trkpt lat="42.554643871" lon="12.71177466"><ele>223</ele><time>2020-10-11T08:39:03Z</time></trkpt>
<trkpt lat="42.55460456" lon="12.711945567"><ele>223</ele><time>2020-10-11T08:39:08Z</time></trkpt>
<trkpt lat="42.554578073" lon="12.712012371"><ele>223</ele><time>2020-10-11T08:39:10Z</time></trkpt>
<trkpt lat="42.554482436" lon="12.712135669"><ele>223</ele><time>2020-10-11T08:39:15Z</time></trkpt>
<trkpt lat="42.554347236" lon="12.712210519"><ele>223</ele><time>2020-10-11T08:39:21Z</time></trkpt>
<trkpt lat="42.554302644" lon="12.712250417"><ele>223</ele><time>2020-10-11T08:39:26Z</time></trkpt>
<trkpt lat="42.554303147" lon="12.71225729"><ele>223</ele><time>2020-10-11T08:39:27Z</time></trkpt>
<trkpt lat="42.554314546" lon="12.712278916"><ele>224</ele><time>2020-10-11T08:39:29Z</time></trkpt>
<trkpt lat="42.554323934" lon="12.712303055"><ele>225</ele><time>2020-10-11T08:39:32Z</time></trkpt>
<trkpt lat="42.554325107" lon="12.712326441"><ele>225</ele><time>2020-10-11T08:39:33Z</time></trkpt>
<trkpt lat="42.554450668" lon="12.712317556"><ele>226</ele><time>2020-10-11T08:39:39Z</time></trkpt>
<trkpt lat="42.554479837" lon="12.712288555"><ele>226</ele><time>2020-10-11T08:39:40Z</time></trkpt>
<trkpt lat="42.554622162" lon="12.712105578"><ele>226</ele><time>2020-10-11T08:39:46Z</time></trkpt>
<trkpt lat="42.554642111" lon="12.71207381"><ele>226</ele><time>2020-10-11T08:39:47Z</time></trkpt>
<trkpt lat="42.554660216" lon="12.712039109"><ele>225</ele><time>2020-10-11T08:39:48Z</time></trkpt>
<trkpt lat="42.554677818" lon="12.712003067"><ele>225</ele><time>2020-10-11T08:39:49Z</time></trkpt>
<trkpt lat="42.554696342" lon="12.711967696"><ele>225</ele><time>2020-10-11T08:39:50Z</time></trkpt>
<trkpt lat="42.554760631" lon="12.711767955"><ele>224</ele><time>2020-10-11T08:39:55Z</time></trkpt>
<trkpt lat="42.554787537" lon="12.711636275"><ele>224</ele><time>2020-10-11T08:39:58Z</time></trkpt>
<trkpt lat="42.55484093" lon="12.711425051"><ele>223</ele><time>2020-10-11T08:40:03Z</time></trkpt>
<trkpt lat="42.554888204" lon="12.711191699"><ele>223</ele><time>2020-10-11T08:40:08Z</time></trkpt>
<trkpt lat="42.554907063" lon="12.711102851"><ele>222</ele><time>2020-10-11T08:40:10Z</time></trkpt>
<trkpt lat="42.554959115" lon="12.710886262"><ele>222</ele><time>2020-10-11T08:40:15Z</time></trkpt>
<trkpt lat="42.554989289" lon="12.710755337"><ele>221</ele><time>2020-10-11T08:40:18Z</time></trkpt>
<trkpt lat="42.555064727" lon="12.710531624"><ele>220</ele><time>2020-10-11T08:40:23Z</time></trkpt>
<trkpt lat="42.55510035" lon="12.710398184"><ele>220</ele><time>2020-10-11T08:40:26Z</time></trkpt>
<trkpt lat="42.555156341" lon="12.710130718"><ele>219</ele><time>2020-10-11T08:40:32Z</time></trkpt>
<trkpt lat="42.555179643" lon="12.710011192"><ele>219</ele><time>2020-10-11T08:40:35Z</time></trkpt>
<trkpt lat="42.555232449" lon="12.709801896"><ele>218</ele><time>2020-10-11T08:40:40Z</time></trkpt>
<trkpt lat="42.555264467" lon="12.709629564"><ele>217</ele><time>2020-10-11T08:40:44Z</time></trkpt>
<trkpt lat="42.555306377" lon="12.709459914"><ele>217</ele><time>2020-10-11T08:40:48Z</time></trkpt>
<trkpt lat="42.555348789" lon="12.709287498"><ele>216</ele><time>2020-10-11T08:40:52Z</time></trkpt>
<trkpt lat="42.555367062" lon="12.709203092"><ele>216</ele><time>2020-10-11T08:40:54Z</time></trkpt>
<trkpt lat="42.555392878" lon="12.70899212"><ele>215</ele><time>2020-10-11T08:40:59Z</time></trkpt>
<trkpt lat="42.555398913" lon="12.708866978"><ele>215</ele><time>2020-10-11T08:41:02Z</time></trkpt>
<trkpt lat="42.555385754" lon="12.708647959"><ele>214</ele><time>2020-10-11T08:41:07Z</time></trkpt>
<trkpt lat="42.555369493" lon="12.708482416"><ele>214</ele><time>2020-10-11T08:41:11Z</time></trkpt>
<trkpt lat="42.555369828" lon="12.708393065"><ele>214</ele><time>2020-10-11T08:41:13Z</time></trkpt>
<trkpt lat="42.555363709" lon="12.708136411"><ele>213</ele><time>2020-10-11T08:41:19Z</time></trkpt>
<trkpt lat="42.555356836" lon="12.708094502"><ele>213</ele><time>2020-10-11T08:41:20Z</time></trkpt>
<trkpt lat="42.555344766" lon="12.707969192"><ele>213</ele><time>2020-10-11T08:41:23Z</time></trkpt>
<trkpt lat="42.555332696" lon="12.707804656"><ele>213</ele><time>2020-10-11T08:41:27Z</time></trkpt>
<trkpt lat="42.555323895" lon="12.707555294"><ele>212</ele><time>2020-10-11T08:41:33Z</time></trkpt>
<trkpt lat="42.55532423" lon="12.707515061"><ele>213</ele><time>2020-10-11T08:41:34Z</time></trkpt>
<trkpt lat="42.555320123" lon="12.707252875"><ele>212</ele><time>2020-10-11T08:41:40Z</time></trkpt>
<trkpt lat="42.555325404" lon="12.707160255"><ele>212</ele><time>2020-10-11T08:41:42Z</time></trkpt>
<trkpt lat="42.55532884" lon="12.707116753"><ele>212</ele><time>2020-10-11T08:41:43Z</time></trkpt>
<trkpt lat="42.555331187" lon="12.706863536"><ele>211</ele><time>2020-10-11T08:41:49Z</time></trkpt>
<trkpt lat="42.555327751" lon="12.706824644"><ele>211</ele><time>2020-10-11T08:41:50Z</time></trkpt>
<trkpt lat="42.555342419" lon="12.706616102"><ele>210</ele><time>2020-10-11T08:41:55Z</time></trkpt>
<trkpt lat="42.555342335" lon="12.706534965"><ele>210</ele><time>2020-10-11T08:41:57Z</time></trkpt>
<trkpt lat="42.555346526" lon="12.706287866"><ele>210</ele><time>2020-10-11T08:42:03Z</time></trkpt>
<trkpt lat="42.555346694" lon="12.706247969"><ele>210</ele><time>2020-10-11T08:42:04Z</time></trkpt>
<trkpt lat="42.555349795" lon="12.706116876"><ele>209</ele><time>2020-10-11T08:42:07Z</time></trkpt>
<trkpt lat="42.55534552" lon="12.705978407"><ele>209</ele><time>2020-10-11T08:42:10Z</time></trkpt>
<trkpt lat="42.555260444" lon="12.70575461"><ele>209</ele><time>2020-10-11T08:42:16Z</time></trkpt>
<trkpt lat="42.555129938" lon="12.705563921"><ele>209</ele><time>2020-10-11T08:42:22Z</time></trkpt>
<trkpt lat="42.555082161" lon="12.705503907"><ele>209</ele><time>2020-10-11T08:42:24Z</time></trkpt>
<trkpt lat="42.555007059" lon="12.705417238"><ele>208</ele><time>2020-10-11T08:42:27Z</time></trkpt>
<trkpt lat="42.554882504" lon="12.705296958"><ele>208</ele><time>2020-10-11T08:42:32Z</time></trkpt>
<trkpt lat="42.554701539" lon="12.705150107"><ele>207</ele><time>2020-10-11T08:42:39Z</time></trkpt>
<trkpt lat="42.554645883" lon="12.705110461"><ele>207</ele><time>2020-10-11T08:42:41Z</time></trkpt>
<trkpt lat="42.554482184" lon="12.704990851"><ele>207</ele><time>2020-10-11T08:42:47Z</time></trkpt>
<trkpt lat="42.554433821" lon="12.70494014"><ele>207</ele><time>2020-10-11T08:42:49Z</time></trkpt>
<trkpt lat="42.554290909" lon="12.704833187"><ele>207</ele><time>2020-10-11T08:42:54Z</time></trkpt>
<trkpt lat="42.55417197" lon="12.70469212"><ele>207</ele><time>2020-10-11T08:42:59Z</time></trkpt>
<trkpt lat="42.554061832" lon="12.704476872"><ele>206</ele><time>2020-10-11T08:43:05Z</time></trkpt>
<trkpt lat="42.554043895" lon="12.704442255"><ele>206</ele><time>2020-10-11T08:43:06Z</time></trkpt>
<trkpt lat="42.553972062" lon="12.704210244"><ele>206</ele><time>2020-10-11T08:43:12Z</time></trkpt>
<trkpt lat="42.553941049" lon="12.703961805"><ele>205</ele><time>2020-10-11T08:43:18Z</time></trkpt>
<trkpt lat="42.553936271" lon="12.703921488"><ele>205</ele><time>2020-10-11T08:43:19Z</time></trkpt>
<trkpt lat="42.553894529" lon="12.703676652"><ele>205</ele><time>2020-10-11T08:43:25Z</time></trkpt>
<trkpt lat="42.553875586" lon="12.703589983"><ele>205</ele><time>2020-10-11T08:43:27Z</time></trkpt>
<trkpt lat="42.553846082" lon="12.70333048"><ele>204</ele><time>2020-10-11T08:43:33Z</time></trkpt>
<trkpt lat="42.553842394" lon="12.703284966"><ele>204</ele><time>2020-10-11T08:43:34Z</time></trkpt>
<trkpt lat="42.55379755" lon="12.70303552"><ele>204</ele><time>2020-10-11T08:43:40Z</time></trkpt>
<trkpt lat="42.553770812" lon="12.702775178"><ele>204</ele><time>2020-10-11T08:43:46Z</time></trkpt>
<trkpt lat="42.553764861" lon="12.702688929"><ele>204</ele><time>2020-10-11T08:43:48Z</time></trkpt>
<trkpt lat="42.55376243" lon="12.702479046"><ele>203</ele><time>2020-10-11T08:43:53Z</time></trkpt>
<trkpt lat="42.553751534" lon="12.70223178"><ele>203</ele><time>2020-10-11T08:43:59Z</time></trkpt>
<trkpt lat="42.553732842" lon="12.701961296"><ele>204</ele><time>2020-10-11T08:44:06Z</time></trkpt>
<trkpt lat="42.553734267" lon="12.701917626"><ele>204</ele><time>2020-10-11T08:44:07Z</time></trkpt>
<trkpt lat="42.553733932" lon="12.701742612"><ele>203</ele><time>2020-10-11T08:44:11Z</time></trkpt>
<trkpt lat="42.553728819" lon="12.701615123"><ele>202</ele><time>2020-10-11T08:44:14Z</time></trkpt>
<trkpt lat="42.553728987" lon="12.701351596"><ele>202</ele><time>2020-10-11T08:44:20Z</time></trkpt>
<trkpt lat="42.553724209" lon="12.701309687"><ele>202</ele><time>2020-10-11T08:44:21Z</time></trkpt>
<trkpt lat="42.553687077" lon="12.70103191"><ele>201</ele><time>2020-10-11T08:44:28Z</time></trkpt>
<trkpt lat="42.553669475" lon="12.700916324"><ele>201</ele><time>2020-10-11T08:44:31Z</time></trkpt>
<trkpt lat="42.553658662" lon="12.700752877"><ele>201</ele><time>2020-10-11T08:44:35Z</time></trkpt>
<trkpt lat="42.553627649" lon="12.700500246"><ele>200</ele><time>2020-10-11T08:44:41Z</time></trkpt>
<trkpt lat="42.553615998" lon="12.700417265"><ele>200</ele><time>2020-10-11T08:44:43Z</time></trkpt>
<trkpt lat="42.553607533" lon="12.700376278"><ele>200</ele><time>2020-10-11T08:44:44Z</time></trkpt>
<trkpt lat="42.553562438" lon="12.700141585"><ele>200</ele><time>2020-10-11T08:44:50Z</time></trkpt>
<trkpt lat="42.553574089" lon="12.69987504"><ele>199</ele><time>2020-10-11T08:44:56Z</time></trkpt>
<trkpt lat="42.553575849" lon="12.699830197"><ele>199</ele><time>2020-10-11T08:44:57Z</time></trkpt>
<trkpt lat="42.553622453" lon="12.699534399"><ele>199</ele><time>2020-10-11T08:45:04Z</time></trkpt>
<trkpt lat="42.553578867" lon="12.699282691"><ele>199</ele><time>2020-10-11T08:45:10Z</time></trkpt>
<trkpt lat="42.55357434" lon="12.699239105"><ele>199</ele><time>2020-10-11T08:45:11Z</time></trkpt>
<trkpt lat="42.553532766" lon="12.698983541"><ele>198</ele><time>2020-10-11T08:45:17Z</time></trkpt>
<trkpt lat="42.553512398" lon="12.698861165"><ele>198</ele><time>2020-10-11T08:45:20Z</time></trkpt>
<trkpt lat="42.553459592" lon="12.698623203"><ele>198</ele><time>2020-10-11T08:45:26Z</time></trkpt>
<trkpt lat="42.553445343" lon="12.698586741"><ele>198</ele><time>2020-10-11T08:45:27Z</time></trkpt>
<trkpt lat="42.553386083" lon="12.698355317"><ele>197</ele><time>2020-10-11T08:45:33Z</time></trkpt>
<trkpt lat="42.553368649" lon="12.698273426"><ele>197</ele><time>2020-10-11T08:45:35Z</time></trkpt>
<trkpt lat="42.553317435" lon="12.698025489"><ele>197</ele><time>2020-10-11T08:45:41Z</time></trkpt>
<trkpt lat="42.553282818" lon="12.697906801"><ele>197</ele><time>2020-10-11T08:45:44Z</time></trkpt>
<trkpt lat="42.553250967" lon="12.697787192"><ele>196</ele><time>2020-10-11T08:45:47Z</time></trkpt>
<trkpt lat="42.553207716" lon="12.697636234"><ele>196</ele><time>2020-10-11T08:45:51Z</time></trkpt>
<trkpt lat="42.55314393" lon="12.69739626"><ele>196</ele><time>2020-10-11T08:45:57Z</time></trkpt>
<trkpt lat="42.553118784" lon="12.697313111"><ele>196</ele><time>2020-10-11T08:45:59Z</time></trkpt>
<trkpt lat="42.553046532" lon="12.697071545"><ele>196</ele><time>2020-10-11T08:46:05Z</time></trkpt>
<trkpt lat="42.553021554" lon="12.696992252"><ele>196</ele><time>2020-10-11T08:46:07Z</time></trkpt>
<trkpt lat="42.552959947" lon="12.696746495"><ele>196</ele><time>2020-10-11T08:46:13Z</time></trkpt>
<trkpt lat="42.552940249" lon="12.696666112"><ele>196</ele><time>2020-10-11T08:46:15Z</time></trkpt>
<trkpt lat="42.552918373" lon="12.696588328"><ele>195</ele><time>2020-10-11T08:46:17Z</time></trkpt>
<trkpt lat="42.55286213" lon="12.696387917"><ele>195</ele><time>2020-10-11T08:46:22Z</time></trkpt>
<trkpt lat="42.552808821" lon="12.69614744"><ele>195</ele><time>2020-10-11T08:46:28Z</time></trkpt>
<trkpt lat="42.552784849" lon="12.696024813"><ele>195</ele><time>2020-10-11T08:46:31Z</time></trkpt>
<trkpt lat="42.55272408" lon="12.695785845"><ele>195</ele><time>2020-10-11T08:46:37Z</time></trkpt>
<trkpt lat="42.552699354" lon="12.695710408"><ele>195</ele><time>2020-10-11T08:46:39Z</time></trkpt>
<trkpt lat="42.552643782" lon="12.695463896"><ele>194</ele><time>2020-10-11T08:46:45Z</time></trkpt>
<trkpt lat="42.55263431" lon="12.695423579"><ele>194</ele><time>2020-10-11T08:46:46Z</time></trkpt>
<trkpt lat="42.552627102" lon="12.695383513"><ele>194</ele><time>2020-10-11T08:46:47Z</time></trkpt>
<trkpt lat="42.552590556" lon="12.69514136"><ele>194</ele><time>2020-10-11T08:46:53Z</time></trkpt>
<trkpt lat="42.552583264" lon="12.695099451"><ele>194</ele><time>2020-10-11T08:46:54Z</time></trkpt>
<trkpt lat="42.55254982" lon="12.694856962"><ele>194</ele><time>2020-10-11T08:47:00Z</time></trkpt>
<trkpt lat="42.552545797" lon="12.694814885"><ele>194</ele><time>2020-10-11T08:47:01Z</time></trkpt>
<trkpt lat="42.55255728" lon="12.694541886"><ele>194</ele><time>2020-10-11T08:47:07Z</time></trkpt>
<trkpt lat="42.552562896" lon="12.694494445"><ele>194</ele><time>2020-10-11T08:47:08Z</time></trkpt>
<trkpt lat="42.552581169" lon="12.69422899"><ele>194</ele><time>2020-10-11T08:47:14Z</time></trkpt>
<trkpt lat="42.552584605" lon="12.694141651"><ele>195</ele><time>2020-10-11T08:47:16Z</time></trkpt>
<trkpt lat="42.552621569" lon="12.693875274"><ele>195</ele><time>2020-10-11T08:47:22Z</time></trkpt>
<trkpt lat="42.552632885" lon="12.693788772"><ele>195</ele><time>2020-10-11T08:47:24Z</time></trkpt>
<trkpt lat="42.552654091" lon="12.693537064"><ele>194</ele><time>2020-10-11T08:47:30Z</time></trkpt>
<trkpt lat="42.552655851" lon="12.693496076"><ele>194</ele><time>2020-10-11T08:47:31Z</time></trkpt>
<trkpt lat="42.55267865" lon="12.69324529"><ele>193</ele><time>2020-10-11T08:47:37Z</time></trkpt>
<trkpt lat="42.552677812" lon="12.693207487"><ele>193</ele><time>2020-10-11T08:47:38Z</time></trkpt>
<trkpt lat="42.552693235" lon="12.692960473"><ele>193</ele><time>2020-10-11T08:47:44Z</time></trkpt>
<trkpt lat="42.552698599" lon="12.692918731"><ele>193</ele><time>2020-10-11T08:47:45Z</time></trkpt>
<trkpt lat="42.552713938" lon="12.692704657"><ele>192</ele><time>2020-10-11T08:47:50Z</time></trkpt>
<trkpt lat="42.552714022" lon="12.692618994"><ele>192</ele><time>2020-10-11T08:47:52Z</time></trkpt>
<trkpt lat="42.552741766" lon="12.692346917"><ele>191</ele><time>2020-10-11T08:47:58Z</time></trkpt>
<trkpt lat="42.552748555" lon="12.692304002"><ele>191</ele><time>2020-10-11T08:47:59Z</time></trkpt>
<trkpt lat="42.552775545" lon="12.692089174"><ele>191</ele><time>2020-10-11T08:48:04Z</time></trkpt>
<trkpt lat="42.552780993" lon="12.692045756"><ele>191</ele><time>2020-10-11T08:48:05Z</time></trkpt>
<trkpt lat="42.552808402" lon="12.69178885"><ele>191</ele><time>2020-10-11T08:48:11Z</time></trkpt>
<trkpt lat="42.55281142" lon="12.691747947"><ele>191</ele><time>2020-10-11T08:48:12Z</time></trkpt>
<trkpt lat="42.552832458" lon="12.691503195"><ele>190</ele><time>2020-10-11T08:48:18Z</time></trkpt>
<trkpt lat="42.552839667" lon="12.691421639"><ele>190</ele><time>2020-10-11T08:48:20Z</time></trkpt>
<trkpt lat="42.552850647" lon="12.69116465"><ele>189</ele><time>2020-10-11T08:48:26Z</time></trkpt>
<trkpt lat="42.552864728" lon="12.691033306"><ele>189</ele><time>2020-10-11T08:48:29Z</time></trkpt>
<trkpt lat="42.552875709" lon="12.690948648"><ele>189</ele><time>2020-10-11T08:48:31Z</time></trkpt>
<trkpt lat="42.552903453" lon="12.690694928"><ele>188</ele><time>2020-10-11T08:48:37Z</time></trkpt>
<trkpt lat="42.552912254" lon="12.690569535"><ele>188</ele><time>2020-10-11T08:48:40Z</time></trkpt>
<trkpt lat="42.552925581" lon="12.690391084"><ele>188</ele><time>2020-10-11T08:48:44Z</time></trkpt>
<trkpt lat="42.552940249" lon="12.690138035"><ele>188</ele><time>2020-10-11T08:48:50Z</time></trkpt>
<trkpt lat="42.552949218" lon="12.690014569"><ele>187</ele><time>2020-10-11T08:48:53Z</time></trkpt>
<trkpt lat="42.552984506" lon="12.689759843"><ele>187</ele><time>2020-10-11T08:48:59Z</time></trkpt>
<trkpt lat="42.553011663" lon="12.689499753"><ele>186</ele><time>2020-10-11T08:49:05Z</time></trkpt>
<trkpt lat="42.553023649" lon="12.689411659"><ele>186</ele><time>2020-10-11T08:49:07Z</time></trkpt>
<trkpt lat="42.553036893" lon="12.689326582"><ele>186</ele><time>2020-10-11T08:49:09Z</time></trkpt>
<trkpt lat="42.553086346" lon="12.689115359"><ele>185</ele><time>2020-10-11T08:49:14Z</time></trkpt>
<trkpt lat="42.553165974" lon="12.688877061"><ele>185</ele><time>2020-10-11T08:49:20Z</time></trkpt>
<trkpt lat="42.553181984" lon="12.688840264"><ele>185</ele><time>2020-10-11T08:49:21Z</time></trkpt>
<trkpt lat="42.553286254" lon="12.688616887"><ele>184</ele><time>2020-10-11T08:49:27Z</time></trkpt>
<trkpt lat="42.553371917" lon="12.68847012"><ele>184</ele><time>2020-10-11T08:49:32Z</time></trkpt>
<trkpt lat="42.553437464" lon="12.688378254"><ele>183</ele><time>2020-10-11T08:49:35Z</time></trkpt>
<trkpt lat="42.55358859" lon="12.68820852"><ele>183</ele><time>2020-10-11T08:49:41Z</time></trkpt>
<trkpt lat="42.553636283" lon="12.688156217"><ele>183</ele><time>2020-10-11T08:49:43Z</time></trkpt>
<trkpt lat="42.553662518" lon="12.688134508"><ele>183</ele><time>2020-10-11T08:49:44Z</time></trkpt>
<trkpt lat="42.553820182" lon="12.68800484"><ele>182</ele><time>2020-10-11T08:49:50Z</time></trkpt>
<trkpt lat="42.553873071" lon="12.687959997"><ele>182</ele><time>2020-10-11T08:49:52Z</time></trkpt>
<trkpt lat="42.553901402" lon="12.687938791"><ele>182</ele><time>2020-10-11T08:49:53Z</time></trkpt>
<trkpt lat="42.554068286" lon="12.687831502"><ele>181</ele><time>2020-10-11T08:49:59Z</time></trkpt>
<trkpt lat="42.554234499" lon="12.687731842"><ele>181</ele><time>2020-10-11T08:50:05Z</time></trkpt>
<trkpt lat="42.554262495" lon="12.687719604"><ele>181</ele><time>2020-10-11T08:50:06Z</time></trkpt>
<trkpt lat="42.554455614" lon="12.687613238"><ele>181</ele><time>2020-10-11T08:50:13Z</time></trkpt>
<trkpt lat="42.554511437" lon="12.687574178"><ele>181</ele><time>2020-10-11T08:50:15Z</time></trkpt>
<trkpt lat="42.554679243" lon="12.687467309"><ele>180</ele><time>2020-10-11T08:50:21Z</time></trkpt>
<trkpt lat="42.554787956" lon="12.687389525"><ele>180</ele><time>2020-10-11T08:50:25Z</time></trkpt>
<trkpt lat="42.554963557" lon="12.687287852"><ele>180</ele><time>2020-10-11T08:50:31Z</time></trkpt>
<trkpt lat="42.555029523" lon="12.687255917"><ele>180</ele><time>2020-10-11T08:50:33Z</time></trkpt>
<trkpt lat="42.555210656" lon="12.68716841"><ele>180</ele><time>2020-10-11T08:50:39Z</time></trkpt>
<trkpt lat="42.555274442" lon="12.687146533"><ele>180</ele><time>2020-10-11T08:50:41Z</time></trkpt>
<trkpt lat="42.555366978" lon="12.687111748"><ele>179</ele><time>2020-10-11T08:50:44Z</time></trkpt>
<trkpt lat="42.555516679" lon="12.687038491"><ele>179</ele><time>2020-10-11T08:50:49Z</time></trkpt>
<trkpt lat="42.555694291" lon="12.68695903"><ele>179</ele><time>2020-10-11T08:50:55Z</time></trkpt>
<trkpt lat="42.55578096" lon="12.686926341"><ele>179</ele><time>2020-10-11T08:50:58Z</time></trkpt>
<trkpt lat="42.555981707" lon="12.686867584"><ele>179</ele><time>2020-10-11T08:51:05Z</time></trkpt>
<trkpt lat="42.556161666" lon="12.686823159"><ele>179</ele><time>2020-10-11T08:51:11Z</time></trkpt>
<trkpt lat="42.556192428" lon="12.686815616"><ele>179</ele><time>2020-10-11T08:51:12Z</time></trkpt>
<trkpt lat="42.55642008" lon="12.68674965"><ele>179</ele><time>2020-10-11T08:51:20Z</time></trkpt>
<trkpt lat="42.556536589" lon="12.686711513"><ele>178</ele><time>2020-10-11T08:51:24Z</time></trkpt>
<trkpt lat="42.556686373" lon="12.686668932"><ele>178</ele><time>2020-10-11T08:51:29Z</time></trkpt>
<trkpt lat="42.556865076" lon="12.686621742"><ele>178</ele><time>2020-10-11T08:51:35Z</time></trkpt>
<trkpt lat="42.556922575" lon="12.686608918"><ele>178</ele><time>2020-10-11T08:51:37Z</time></trkpt>
<trkpt lat="42.557040593" lon="12.686590645"><ele>177</ele><time>2020-10-11T08:51:41Z</time></trkpt>
<trkpt lat="42.557187779" lon="12.686560471"><ele>177</ele><time>2020-10-11T08:51:46Z</time></trkpt>
<trkpt lat="42.557370672" lon="12.686521914"><ele>177</ele><time>2020-10-11T08:51:52Z</time></trkpt>
<trkpt lat="42.557458263" lon="12.68650163"><ele>177</ele><time>2020-10-11T08:51:55Z</time></trkpt>
<trkpt lat="42.557666721" lon="12.686457206"><ele>177</ele><time>2020-10-11T08:52:02Z</time></trkpt>
<trkpt lat="42.557748361" lon="12.686435161"><ele>177</ele><time>2020-10-11T08:52:05Z</time></trkpt>
<trkpt lat="42.557861265" lon="12.686390737"><ele>177</ele><time>2020-10-11T08:52:09Z</time></trkpt>
<trkpt lat="42.558046337" lon="12.686281018"><ele>177</ele><time>2020-10-11T08:52:16Z</time></trkpt>
<trkpt lat="42.558100065" lon="12.686244976"><ele>176</ele><time>2020-10-11T08:52:18Z</time></trkpt>
<trkpt lat="42.5582211" lon="12.686129054"><ele>176</ele><time>2020-10-11T08:52:23Z</time></trkpt>
<trkpt lat="42.558376333" lon="12.685939958"><ele>176</ele><time>2020-10-11T08:52:30Z</time></trkpt>
<trkpt lat="42.558398461" lon="12.685909029"><ele>176</ele><time>2020-10-11T08:52:31Z</time></trkpt>
<trkpt lat="42.558516897" lon="12.68572622"><ele>176</ele><time>2020-10-11T08:52:37Z</time></trkpt>
<trkpt lat="42.558530057" lon="12.685692105"><ele>176</ele><time>2020-10-11T08:52:38Z</time></trkpt>
<trkpt lat="42.558596777" lon="12.685437463"><ele>176</ele><time>2020-10-11T08:52:45Z</time></trkpt>
<trkpt lat="42.558609014" lon="12.685401002"><ele>176</ele><time>2020-10-11T08:52:46Z</time></trkpt>
<trkpt lat="42.558694845" lon="12.685143007"><ele>175</ele><time>2020-10-11T08:52:53Z</time></trkpt>
<trkpt lat="42.558699371" lon="12.685098248"><ele>175</ele><time>2020-10-11T08:52:54Z</time></trkpt>
<trkpt lat="42.558703814" lon="12.685054746"><ele>175</ele><time>2020-10-11T08:52:55Z</time></trkpt>
<trkpt lat="42.558709178" lon="12.684816951"><ele>175</ele><time>2020-10-11T08:53:01Z</time></trkpt>
<trkpt lat="42.558692917" lon="12.684628107"><ele>174</ele><time>2020-10-11T08:53:06Z</time></trkpt>
<trkpt lat="42.558687218" lon="12.684511263"><ele>174</ele><time>2020-10-11T08:53:09Z</time></trkpt>
<trkpt lat="42.558680177" lon="12.684340021"><ele>174</ele><time>2020-10-11T08:53:13Z</time></trkpt>
<trkpt lat="42.558643883" lon="12.684101053"><ele>174</ele><time>2020-10-11T08:53:19Z</time></trkpt>
<trkpt lat="42.558618318" lon="12.683987394"><ele>173</ele><time>2020-10-11T08:53:22Z</time></trkpt>
<trkpt lat="42.558569703" lon="12.683722191"><ele>173</ele><time>2020-10-11T08:53:29Z</time></trkpt>
<trkpt lat="42.558552269" lon="12.683642143"><ele>173</ele><time>2020-10-11T08:53:31Z</time></trkpt>
<trkpt lat="42.55851103" lon="12.683365792"><ele>173</ele><time>2020-10-11T08:53:38Z</time></trkpt>
<trkpt lat="42.558501894" lon="12.683328995"><ele>173</ele><time>2020-10-11T08:53:39Z</time></trkpt>
<trkpt lat="42.558443137" lon="12.683068989"><ele>173</ele><time>2020-10-11T08:53:46Z</time></trkpt>
<trkpt lat="42.558413297" lon="12.682959354"><ele>173</ele><time>2020-10-11T08:53:49Z</time></trkpt>
<trkpt lat="42.558363676" lon="12.682715692"><ele>173</ele><time>2020-10-11T08:53:55Z</time></trkpt>
<trkpt lat="42.558337692" lon="12.682642601"><ele>173</ele><time>2020-10-11T08:53:57Z</time></trkpt>
<trkpt lat="42.558261584" lon="12.682382427"><ele>173</ele><time>2020-10-11T08:54:04Z</time></trkpt>
<trkpt lat="42.55814801" lon="12.682158463"><ele>173</ele><time>2020-10-11T08:54:11Z</time></trkpt>
<trkpt lat="42.558061508" lon="12.682052348"><ele>173</ele><time>2020-10-11T08:54:15Z</time></trkpt>
<trkpt lat="42.557881381" lon="12.681919914"><ele>172</ele><time>2020-10-11T08:54:22Z</time></trkpt>
<trkpt lat="42.557710307" lon="12.68176795"><ele>172</ele><time>2020-10-11T08:54:30Z</time></trkpt>
<trkpt lat="42.55754468" lon="12.681648256"><ele>172</ele><time>2020-10-11T08:54:35Z</time></trkpt>
<trkpt lat="42.557490366" lon="12.681610705"><ele>172</ele><time>2020-10-11T08:54:37Z</time></trkpt>
<trkpt lat="42.557359356" lon="12.681448264"><ele>171</ele><time>2020-10-11T08:54:43Z</time></trkpt>
<trkpt lat="42.55721787" lon="12.681245841"><ele>171</ele><time>2020-10-11T08:54:50Z</time></trkpt>
<trkpt lat="42.557195742" lon="12.68121969"><ele>171</ele><time>2020-10-11T08:54:51Z</time></trkpt>
<trkpt lat="42.557052244" lon="12.681068564"><ele>171</ele><time>2020-10-11T08:54:57Z</time></trkpt>
<trkpt lat="42.55701025" lon="12.681009471"><ele>171</ele><time>2020-10-11T08:54:59Z</time></trkpt>
<trkpt lat="42.556855101" lon="12.680827081"><ele>170</ele><time>2020-10-11T08:55:06Z</time></trkpt>
<trkpt lat="42.55680305" lon="12.680775952"><ele>171</ele><time>2020-10-11T08:55:08Z</time></trkpt>
<trkpt lat="42.556654522" lon="12.68060362"><ele>170</ele><time>2020-10-11T08:55:14Z</time></trkpt>
<trkpt lat="42.556590484" lon="12.680519214"><ele>170</ele><time>2020-10-11T08:55:17Z</time></trkpt>
<trkpt lat="42.556457547" lon="12.68035342"><ele>170</ele><time>2020-10-11T08:55:23Z</time></trkpt>
<trkpt lat="42.556433743" lon="12.680326598"><ele>170</ele><time>2020-10-11T08:55:24Z</time></trkpt>
<trkpt lat="42.556268284" lon="12.68015502"><ele>170</ele><time>2020-10-11T08:55:31Z</time></trkpt>
<trkpt lat="42.556247246" lon="12.680129288"><ele>170</ele><time>2020-10-11T08:55:32Z</time></trkpt>
<trkpt lat="42.556088828" lon="12.679949161"><ele>169</ele><time>2020-10-11T08:55:39Z</time></trkpt>
<trkpt lat="42.556067286" lon="12.679921919"><ele>169</ele><time>2020-10-11T08:55:40Z</time></trkpt>
<trkpt lat="42.555989167" lon="12.679809183"><ele>169</ele><time>2020-10-11T08:55:44Z</time></trkpt>
<trkpt lat="42.555911802" lon="12.679675659"><ele>169</ele><time>2020-10-11T08:55:48Z</time></trkpt>
<trkpt lat="42.55581256" lon="12.679460244"><ele>169</ele><time>2020-10-11T08:55:54Z</time></trkpt>
<trkpt lat="42.555791941" lon="12.679384137"><ele>168</ele><time>2020-10-11T08:55:56Z</time></trkpt>
<trkpt lat="42.55573662" lon="12.679137792"><ele>168</ele><time>2020-10-11T08:56:02Z</time></trkpt>
<trkpt lat="42.555730334" lon="12.679096889"><ele>168</ele><time>2020-10-11T08:56:03Z</time></trkpt>
<trkpt lat="42.555720191" lon="12.678840067"><ele>168</ele><time>2020-10-11T08:56:09Z</time></trkpt>
<trkpt lat="42.555727568" lon="12.678795895"><ele>168</ele><time>2020-10-11T08:56:10Z</time></trkpt>
<trkpt lat="42.555783391" lon="12.678534463"><ele>168</ele><time>2020-10-11T08:56:16Z</time></trkpt>
<trkpt lat="42.555814153" lon="12.67844771"><ele>167</ele><time>2020-10-11T08:56:18Z</time></trkpt>
<trkpt lat="42.555901241" lon="12.678206982"><ele>167</ele><time>2020-10-11T08:56:24Z</time></trkpt>
<trkpt lat="42.555914568" lon="12.678164905"><ele>167</ele><time>2020-10-11T08:56:25Z</time></trkpt>
<trkpt lat="42.555945162" lon="12.678085193"><ele>167</ele><time>2020-10-11T08:56:27Z</time></trkpt>
<trkpt lat="42.556031914" lon="12.677910933"><ele>167</ele><time>2020-10-11T08:56:32Z</time></trkpt>
<trkpt lat="42.55614792" lon="12.677714881"><ele>166</ele><time>2020-10-11T08:56:38Z</time></trkpt>
<trkpt lat="42.556182453" lon="12.67764858"><ele>166</ele><time>2020-10-11T08:56:40Z</time></trkpt>
<trkpt lat="42.556307763" lon="12.677419167"><ele>166</ele><time>2020-10-11T08:56:47Z</time></trkpt>
<trkpt lat="42.556381859" lon="12.677229736"><ele>166</ele><time>2020-10-11T08:56:52Z</time></trkpt>
<trkpt lat="42.556397952" lon="12.677193861"><ele>166</ele><time>2020-10-11T08:56:53Z</time></trkpt>
<trkpt lat="42.55649359" lon="12.67697392"><ele>165</ele><time>2020-10-11T08:56:59Z</time></trkpt>
<trkpt lat="42.556552179" lon="12.676724643"><ele>166</ele><time>2020-10-11T08:57:06Z</time></trkpt>
<trkpt lat="42.556561064" lon="12.676689103"><ele>166</ele><time>2020-10-11T08:57:07Z</time></trkpt>
<trkpt lat="42.556605237" lon="12.676420044"><ele>165</ele><time>2020-10-11T08:57:14Z</time></trkpt>
<trkpt lat="42.556612696" lon="12.676264057"><ele>165</ele><time>2020-10-11T08:57:18Z</time></trkpt>
<trkpt lat="42.556606745" lon="12.67610983"><ele>164</ele><time>2020-10-11T08:57:22Z</time></trkpt>
<trkpt lat="42.556602973" lon="12.675872035"><ele>165</ele><time>2020-10-11T08:57:28Z</time></trkpt>
<trkpt lat="42.556596184" lon="12.675611274"><ele>165</ele><time>2020-10-11T08:57:35Z</time></trkpt>
<trkpt lat="42.556592748" lon="12.675539106"><ele>165</ele><time>2020-10-11T08:57:37Z</time></trkpt>
<trkpt lat="42.55659149" lon="12.675281446"><ele>165</ele><time>2020-10-11T08:57:44Z</time></trkpt>
<trkpt lat="42.556590736" lon="12.675246913"><ele>165</ele><time>2020-10-11T08:57:45Z</time></trkpt>
<trkpt lat="42.556585036" lon="12.675007358"><ele>165</ele><time>2020-10-11T08:57:51Z</time></trkpt>
<trkpt lat="42.556577576" lon="12.674728911"><ele>165</ele><time>2020-10-11T08:57:58Z</time></trkpt>
<trkpt lat="42.556577409" lon="12.674687337"><ele>165</ele><time>2020-10-11T08:57:59Z</time></trkpt>
<trkpt lat="42.556604147" lon="12.674433952"><ele>165</ele><time>2020-10-11T08:58:05Z</time></trkpt>
<trkpt lat="42.556612948" lon="12.674346277"><ele>164</ele><time>2020-10-11T08:58:07Z</time></trkpt>
<trkpt lat="42.556659384" lon="12.674096748"><ele>164</ele><time>2020-10-11T08:58:13Z</time></trkpt>
<trkpt lat="42.556678159" lon="12.674015528"><ele>164</ele><time>2020-10-11T08:58:15Z</time></trkpt>
<trkpt lat="42.556759296" lon="12.673787121"><ele>164</ele><time>2020-10-11T08:58:21Z</time></trkpt>
<trkpt lat="42.556778491" lon="12.673754767"><ele>164</ele><time>2020-10-11T08:58:22Z</time></trkpt>
<trkpt lat="42.556797769" lon="12.673725178"><ele>164</ele><time>2020-10-11T08:58:23Z</time></trkpt>
<trkpt lat="42.556912433" lon="12.673555864"><ele>163</ele><time>2020-10-11T08:58:29Z</time></trkpt>
<trkpt lat="42.557075964" lon="12.673398452"><ele>163</ele><time>2020-10-11T08:58:36Z</time></trkpt>
<trkpt lat="42.557102786" lon="12.673375402"><ele>163</ele><time>2020-10-11T08:58:37Z</time></trkpt>
<trkpt lat="42.557261456" lon="12.673238944"><ele>163</ele><time>2020-10-11T08:58:43Z</time></trkpt>
<trkpt lat="42.557290373" lon="12.673222683"><ele>163</ele><time>2020-10-11T08:58:44Z</time></trkpt>
<trkpt lat="42.557460023" lon="12.673124028"><ele>163</ele><time>2020-10-11T08:58:50Z</time></trkpt>
<trkpt lat="42.557541914" lon="12.673070468"><ele>163</ele><time>2020-10-11T08:58:53Z</time></trkpt>
<trkpt lat="42.557714246" lon="12.672949098"><ele>163</ele><time>2020-10-11T08:59:00Z</time></trkpt>
<trkpt lat="42.557740901" lon="12.672931999"><ele>163</ele><time>2020-10-11T08:59:01Z</time></trkpt>
<trkpt lat="42.5579134" lon="12.672846587"><ele>163</ele><time>2020-10-11T08:59:07Z</time></trkpt>
<trkpt lat="42.558090258" lon="12.672800655"><ele>163</ele><time>2020-10-11T08:59:13Z</time></trkpt>
<trkpt lat="42.558146669" lon="12.672795793"><ele>163</ele><time>2020-10-11T08:59:15Z</time></trkpt>
<trkpt lat="42.558329646" lon="12.672800403"><ele>162</ele><time>2020-10-11T08:59:21Z</time></trkpt>
<trkpt lat="42.558391253" lon="12.672804259"><ele>163</ele><time>2020-10-11T08:59:23Z</time></trkpt>
<trkpt lat="42.558571547" lon="12.672830662"><ele>162</ele><time>2020-10-11T08:59:29Z</time></trkpt>
<trkpt lat="42.558603734" lon="12.67283259"><ele>162</ele><time>2020-10-11T08:59:30Z</time></trkpt>
<trkpt lat="42.558796434" lon="12.672874751"><ele>162</ele><time>2020-10-11T08:59:36Z</time></trkpt>
<trkpt lat="42.558854939" lon="12.672890928"><ele>162</ele><time>2020-10-11T08:59:38Z</time></trkpt>
<trkpt lat="42.559039677" lon="12.672928311"><ele>162</ele><time>2020-10-11T08:59:44Z</time></trkpt>
<trkpt lat="42.559088543" lon="12.672940716"><ele>162</ele><time>2020-10-11T08:59:46Z</time></trkpt>
<trkpt lat="42.559288284" lon="12.672986984"><ele>162</ele><time>2020-10-11T08:59:53Z</time></trkpt>
<trkpt lat="42.559491042" lon="12.673041048"><ele>162</ele><time>2020-10-11T08:59:59Z</time></trkpt>
<trkpt lat="42.559522307" lon="12.673048927"><ele>162</ele><time>2020-10-11T09:00:00Z</time></trkpt>
<trkpt lat="42.55968391" lon="12.673133416"><ele>162</ele><time>2020-10-11T09:00:06Z</time></trkpt>
<trkpt lat="42.559853559" lon="12.673295606"><ele>162</ele><time>2020-10-11T09:00:13Z</time></trkpt>
<trkpt lat="42.559920447" lon="12.67336878"><ele>162</ele><time>2020-10-11T09:00:16Z</time></trkpt>
<trkpt lat="42.560015833" lon="12.673471626"><ele>161</ele><time>2020-10-11T09:00:20Z</time></trkpt>
<trkpt lat="42.560066963" lon="12.673519738"><ele>161</ele><time>2020-10-11T09:00:22Z</time></trkpt>
<trkpt lat="42.560206186" lon="12.673653262"><ele>161</ele><time>2020-10-11T09:00:28Z</time></trkpt>
<trkpt lat="42.560387906" lon="12.67375024"><ele>161</ele><time>2020-10-11T09:00:35Z</time></trkpt>
<trkpt lat="42.560415315" lon="12.673758874"><ele>161</ele><time>2020-10-11T09:00:36Z</time></trkpt>
<trkpt lat="42.56061296" lon="12.673751246"><ele>161</ele><time>2020-10-11T09:00:43Z</time></trkpt>
<trkpt lat="42.560806163" lon="12.673652256"><ele>160</ele><time>2020-10-11T09:00:50Z</time></trkpt>
<trkpt lat="42.560832314" lon="12.673629038"><ele>160</ele><time>2020-10-11T09:00:51Z</time></trkpt>
<trkpt lat="42.560980674" lon="12.673461149"><ele>160</ele><time>2020-10-11T09:00:57Z</time></trkpt>
<trkpt lat="42.561075473" lon="12.673289068"><ele>160</ele><time>2020-10-11T09:01:02Z</time></trkpt>
<trkpt lat="42.561130375" lon="12.673141798"><ele>159</ele><time>2020-10-11T09:01:06Z</time></trkpt>
<trkpt lat="42.561159292" lon="12.673026714"><ele>159</ele><time>2020-10-11T09:01:09Z</time></trkpt>
<trkpt lat="42.561206985" lon="12.672755811"><ele>159</ele><time>2020-10-11T09:01:16Z</time></trkpt>
<trkpt lat="42.561213691" lon="12.67271583"><ele>159</ele><time>2020-10-11T09:01:17Z</time></trkpt>
<trkpt lat="42.561265994" lon="12.67247946"><ele>159</ele><time>2020-10-11T09:01:23Z</time></trkpt>
<trkpt lat="42.56127446" lon="12.672438724"><ele>159</ele><time>2020-10-11T09:01:24Z</time></trkpt>
<trkpt lat="42.56133724" lon="12.672194894"><ele>158</ele><time>2020-10-11T09:01:30Z</time></trkpt>
<trkpt lat="42.561346795" lon="12.672152147"><ele>158</ele><time>2020-10-11T09:01:31Z</time></trkpt>
<trkpt lat="42.561354423" lon="12.672111746"><ele>158</ele><time>2020-10-11T09:01:32Z</time></trkpt>
<trkpt lat="42.561402703" lon="12.671872191"><ele>158</ele><time>2020-10-11T09:01:38Z</time></trkpt>
<trkpt lat="42.561411671" lon="12.671834556"><ele>157</ele><time>2020-10-11T09:01:39Z</time></trkpt>
<trkpt lat="42.561426759" lon="12.671753587"><ele>157</ele><time>2020-10-11T09:01:41Z</time></trkpt>
<trkpt lat="42.561469171" lon="12.671554517"><ele>157</ele><time>2020-10-11T09:01:46Z</time></trkpt>
<trkpt lat="42.561517535" lon="12.671279004"><ele>157</ele><time>2020-10-11T09:01:53Z</time></trkpt>
<trkpt lat="42.561527593" lon="12.671238352"><ele>157</ele><time>2020-10-11T09:01:54Z</time></trkpt>
<trkpt lat="42.561574951" lon="12.670990583"><ele>156</ele><time>2020-10-11T09:02:00Z</time></trkpt>
<trkpt lat="42.561582997" lon="12.670949679"><ele>156</ele><time>2020-10-11T09:02:01Z</time></trkpt>
<trkpt lat="42.561610574" lon="12.670785477"><ele>156</ele><time>2020-10-11T09:02:05Z</time></trkpt>
<trkpt lat="42.561639659" lon="12.670669639"><ele>156</ele><time>2020-10-11T09:02:08Z</time></trkpt>
<trkpt lat="42.561692884" lon="12.670431929"><ele>156</ele><time>2020-10-11T09:02:14Z</time></trkpt>
<trkpt lat="42.561702859" lon="12.670393707"><ele>156</ele><time>2020-10-11T09:02:15Z</time></trkpt>
<trkpt lat="42.561757341" lon="12.670170162"><ele>155</ele><time>2020-10-11T09:02:21Z</time></trkpt>
<trkpt lat="42.561763879" lon="12.670133952"><ele>155</ele><time>2020-10-11T09:02:22Z</time></trkpt>
<trkpt lat="42.56183194" lon="12.66986615"><ele>155</ele><time>2020-10-11T09:02:29Z</time></trkpt>
<trkpt lat="42.561839232" lon="12.66982181"><ele>155</ele><time>2020-10-11T09:02:30Z</time></trkpt>
<trkpt lat="42.561881728" lon="12.669570269"><ele>154</ele><time>2020-10-11T09:02:36Z</time></trkpt>
<trkpt lat="42.561888183" lon="12.66952903"><ele>154</ele><time>2020-10-11T09:02:37Z</time></trkpt>
<trkpt lat="42.561925817" lon="12.669282351"><ele>154</ele><time>2020-10-11T09:02:43Z</time></trkpt>
<trkpt lat="42.561931768" lon="12.669243375"><ele>154</ele><time>2020-10-11T09:02:44Z</time></trkpt>
<trkpt lat="42.56198734" lon="12.668969957"><ele>154</ele><time>2020-10-11T09:02:51Z</time></trkpt>
<trkpt lat="42.561997902" lon="12.668929305"><ele>154</ele><time>2020-10-11T09:02:52Z</time></trkpt>
<trkpt lat="42.562066214" lon="12.668694779"><ele>154</ele><time>2020-10-11T09:02:58Z</time></trkpt>
<trkpt lat="42.56207535" lon="12.668656223"><ele>154</ele><time>2020-10-11T09:02:59Z</time></trkpt>
<trkpt lat="42.562115416" lon="12.668474419"><ele>153</ele><time>2020-10-11T09:03:04Z</time></trkpt>
<trkpt lat="42.562167887" lon="12.668213574"><ele>153</ele><time>2020-10-11T09:03:11Z</time></trkpt>
<trkpt lat="42.562222201" lon="12.667966476"><ele>153</ele><time>2020-10-11T09:03:17Z</time></trkpt>
<trkpt lat="42.56223972" lon="12.667810488"><ele>153</ele><time>2020-10-11T09:03:21Z</time></trkpt>
<trkpt lat="42.562285569" lon="12.667547381"><ele>153</ele><time>2020-10-11T09:03:28Z</time></trkpt>
<trkpt lat="42.562316749" lon="12.667444702"><ele>153</ele><time>2020-10-11T09:03:31Z</time></trkpt>
<trkpt lat="42.56238942" lon="12.667209255"><ele>152</ele><time>2020-10-11T09:03:37Z</time></trkpt>
<trkpt lat="42.562425714" lon="12.66694908"><ele>153</ele><time>2020-10-11T09:03:44Z</time></trkpt>
<trkpt lat="42.562483884" lon="12.666696114"><ele>152</ele><time>2020-10-11T09:03:51Z</time></trkpt>
<trkpt lat="42.562495787" lon="12.666655295"><ele>152</ele><time>2020-10-11T09:03:52Z</time></trkpt>
<trkpt lat="42.562522693" lon="12.666541385"><ele>152</ele><time>2020-10-11T09:03:55Z</time></trkpt>
<trkpt lat="42.562550018" lon="12.666397886"><ele>152</ele><time>2020-10-11T09:03:59Z</time></trkpt>
<trkpt lat="42.562602991" lon="12.66613394"><ele>152</ele><time>2020-10-11T09:04:06Z</time></trkpt>
<trkpt lat="42.562626796" lon="12.666012403"><ele>152</ele><time>2020-10-11T09:04:09Z</time></trkpt>
<trkpt lat="42.562683625" lon="12.665777206"><ele>152</ele><time>2020-10-11T09:04:15Z</time></trkpt>
<trkpt lat="42.562718075" lon="12.665659776"><ele>152</ele><time>2020-10-11T09:04:18Z</time></trkpt>
<trkpt lat="42.56280357" lon="12.665401362"><ele>151</ele><time>2020-10-11T09:04:25Z</time></trkpt>
<trkpt lat="42.562827459" lon="12.665326511"><ele>151</ele><time>2020-10-11T09:04:27Z</time></trkpt>
<trkpt lat="42.562905159" lon="12.665084442"><ele>151</ele><time>2020-10-11T09:04:33Z</time></trkpt>
<trkpt lat="42.562937681" lon="12.664966593"><ele>152</ele><time>2020-10-11T09:04:36Z</time></trkpt>
<trkpt lat="42.56299736" lon="12.664700132"><ele>151</ele><time>2020-10-11T09:04:43Z</time></trkpt>
<trkpt lat="42.563007837" lon="12.664627125"><ele>151</ele><time>2020-10-11T09:04:45Z</time></trkpt>
<trkpt lat="42.563023511" lon="12.664553868"><ele>151</ele><time>2020-10-11T09:04:47Z</time></trkpt>
<trkpt lat="42.563061146" lon="12.664370807"><ele>151</ele><time>2020-10-11T09:04:52Z</time></trkpt>
<trkpt lat="42.563101379" lon="12.664103173"><ele>151</ele><time>2020-10-11T09:04:59Z</time></trkpt>
<trkpt lat="42.563109258" lon="12.664066795"><ele>151</ele><time>2020-10-11T09:05:00Z</time></trkpt>
<trkpt lat="42.563163405" lon="12.663800502"><ele>150</ele><time>2020-10-11T09:05:07Z</time></trkpt>
<trkpt lat="42.56317405" lon="12.663763957"><ele>150</ele><time>2020-10-11T09:05:08Z</time></trkpt>
<trkpt lat="42.563200872" lon="12.663566899"><ele>150</ele><time>2020-10-11T09:05:13Z</time></trkpt>
<trkpt lat="42.56321487" lon="12.663453743"><ele>150</ele><time>2020-10-11T09:05:16Z</time></trkpt>
<trkpt lat="42.56325108" lon="12.663209327"><ele>150</ele><time>2020-10-11T09:05:22Z</time></trkpt>
<trkpt lat="42.563256696" lon="12.663169932"><ele>150</ele><time>2020-10-11T09:05:23Z</time></trkpt>
<trkpt lat="42.563312352" lon="12.662897436"><ele>150</ele><time>2020-10-11T09:05:30Z</time></trkpt>
<trkpt lat="42.563322997" lon="12.662859214"><ele>150</ele><time>2020-10-11T09:05:31Z</time></trkpt>
<trkpt lat="42.563381083" lon="12.662627622"><ele>150</ele><time>2020-10-11T09:05:37Z</time></trkpt>
<trkpt lat="42.56344663" lon="12.662393013"><ele>150</ele><time>2020-10-11T09:05:43Z</time></trkpt>
<trkpt lat="42.563453922" lon="12.662354708"><ele>150</ele><time>2020-10-11T09:05:44Z</time></trkpt>
<trkpt lat="42.563504968" lon="12.662081793"><ele>149</ele><time>2020-10-11T09:05:51Z</time></trkpt>
<trkpt lat="42.563563138" lon="12.661884818"><ele>149</ele><time>2020-10-11T09:05:56Z</time></trkpt>
<trkpt lat="42.563587278" lon="12.66180804"><ele>149</ele><time>2020-10-11T09:05:58Z</time></trkpt>
<trkpt lat="42.563639246" lon="12.661539903"><ele>149</ele><time>2020-10-11T09:06:05Z</time></trkpt>
<trkpt lat="42.563646873" lon="12.661500257"><ele>149</ele><time>2020-10-11T09:06:06Z</time></trkpt>
<trkpt lat="42.56369683" lon="12.661235556"><ele>149</ele><time>2020-10-11T09:06:13Z</time></trkpt>
<trkpt lat="42.563709067" lon="12.661155928"><ele>149</ele><time>2020-10-11T09:06:15Z</time></trkpt>
<trkpt lat="42.563752653" lon="12.660912685"><ele>149</ele><time>2020-10-11T09:06:21Z</time></trkpt>
<trkpt lat="42.563793305" lon="12.660680758"><ele>149</ele><time>2020-10-11T09:06:27Z</time></trkpt>
<trkpt lat="42.5638586" lon="12.66037683"><ele>149</ele><time>2020-10-11T09:06:35Z</time></trkpt>
<trkpt lat="42.56390579" lon="12.660107436"><ele>148</ele><time>2020-10-11T09:06:42Z</time></trkpt>
<trkpt lat="42.563952142" lon="12.659839634"><ele>148</ele><time>2020-10-11T09:06:49Z</time></trkpt>
<trkpt lat="42.564020874" lon="12.659598235"><ele>148</ele><time>2020-10-11T09:06:55Z</time></trkpt>
<trkpt lat="42.564048367" lon="12.659528498"><ele>148</ele><time>2020-10-11T09:06:57Z</time></trkpt>
<trkpt lat="42.564080134" lon="12.659409139"><ele>148</ele><time>2020-10-11T09:07:00Z</time></trkpt>
<trkpt lat="42.564121205" lon="12.659290703"><ele>148</ele><time>2020-10-11T09:07:03Z</time></trkpt>
<trkpt lat="42.564195972" lon="12.659067409"><ele>148</ele><time>2020-10-11T09:07:09Z</time></trkpt>
<trkpt lat="42.564200833" lon="12.659032708"><ele>148</ele><time>2020-10-11T09:07:10Z</time></trkpt>
<trkpt lat="42.564220196" lon="12.658785861"><ele>147</ele><time>2020-10-11T09:07:17Z</time></trkpt>
<trkpt lat="42.564230673" lon="12.658609506"><ele>147</ele><time>2020-10-11T09:07:22Z</time></trkpt>
<trkpt lat="42.564259674" lon="12.658358971"><ele>147</ele><time>2020-10-11T09:07:29Z</time></trkpt>
<trkpt lat="42.564285574" lon="12.658251012"><ele>147</ele><time>2020-10-11T09:07:32Z</time></trkpt>
<trkpt lat="42.564306026" lon="12.658134922"><ele>147</ele><time>2020-10-11T09:07:35Z</time></trkpt>
<trkpt lat="42.564348942" lon="12.657951945"><ele>147</ele><time>2020-10-11T09:07:40Z</time></trkpt>
<trkpt lat="42.564464444" lon="12.657744829"><ele>146</ele><time>2020-10-11T09:07:46Z</time></trkpt>
<trkpt lat="42.564538205" lon="12.657519942"><ele>146</ele><time>2020-10-11T09:07:52Z</time></trkpt>
<trkpt lat="42.564547425" lon="12.657479374"><ele>146</ele><time>2020-10-11T09:07:53Z</time></trkpt>
<trkpt lat="42.564624539" lon="12.657217691"><ele>146</ele><time>2020-10-11T09:08:00Z</time></trkpt>
<trkpt lat="42.564633088" lon="12.657181146"><ele>146</ele><time>2020-10-11T09:08:01Z</time></trkpt>
<trkpt lat="42.564671058" lon="12.656991128"><ele>146</ele><time>2020-10-11T09:08:06Z</time></trkpt>
<trkpt lat="42.564735683" lon="12.656764146"><ele>146</ele><time>2020-10-11T09:08:12Z</time></trkpt>
<trkpt lat="42.564747753" lon="12.656729529"><ele>146</ele><time>2020-10-11T09:08:13Z</time></trkpt>
<trkpt lat="42.564846324" lon="12.656490896"><ele>146</ele><time>2020-10-11T09:08:20Z</time></trkpt>
<trkpt lat="42.564878929" lon="12.656377992"><ele>146</ele><time>2020-10-11T09:08:23Z</time></trkpt>
<trkpt lat="42.564904997" lon="12.656258466"><ele>146</ele><time>2020-10-11T09:08:26Z</time></trkpt>
<trkpt lat="42.56488136" lon="12.656114297"><ele>146</ele><time>2020-10-11T09:08:29Z</time></trkpt>
<trkpt lat="42.564880941" lon="12.655996112"><ele>146</ele><time>2020-10-11T09:08:32Z</time></trkpt>
<trkpt lat="42.564884881" lon="12.655922771"><ele>146</ele><time>2020-10-11T09:08:34Z</time></trkpt>
<trkpt lat="42.564909859" lon="12.655707104"><ele>146</ele><time>2020-10-11T09:08:40Z</time></trkpt>
<trkpt lat="42.56499703" lon="12.65546185"><ele>146</ele><time>2020-10-11T09:08:47Z</time></trkpt>
<trkpt lat="42.56501128" lon="12.655419605"><ele>146</ele><time>2020-10-11T09:08:48Z</time></trkpt>
<trkpt lat="42.565043466" lon="12.655190695"><ele>146</ele><time>2020-10-11T09:08:54Z</time></trkpt>
<trkpt lat="42.564964592" lon="12.655016351"><ele>146</ele><time>2020-10-11T09:09:00Z</time></trkpt>
<trkpt lat="42.564767115" lon="12.654922642"><ele>146</ele><time>2020-10-11T09:09:06Z</time></trkpt>
<trkpt lat="42.564594867" lon="12.654833123"><ele>145</ele><time>2020-10-11T09:09:12Z</time></trkpt>
<trkpt lat="42.564563099" lon="12.654815521"><ele>145</ele><time>2020-10-11T09:09:13Z</time></trkpt>
<trkpt lat="42.564389594" lon="12.654686021"><ele>144</ele><time>2020-10-11T09:09:19Z</time></trkpt>
<trkpt lat="42.564259507" lon="12.654574122"><ele>144</ele><time>2020-10-11T09:09:24Z</time></trkpt>
<trkpt lat="42.564188428" lon="12.654499607"><ele>143</ele><time>2020-10-11T09:09:27Z</time></trkpt>
<trkpt lat="42.564169401" lon="12.654462978"><ele>143</ele><time>2020-10-11T09:09:28Z</time></trkpt>
<trkpt lat="42.564015174" lon="12.65427799"><ele>143</ele><time>2020-10-11T09:09:35Z</time></trkpt>
<trkpt lat="42.563994639" lon="12.654253682"><ele>143</ele><time>2020-10-11T09:09:36Z</time></trkpt>
<trkpt lat="42.563832868" lon="12.654104987"><ele>143</ele><time>2020-10-11T09:09:43Z</time></trkpt>
<trkpt lat="42.563670343" lon="12.653979594"><ele>143</ele><time>2020-10-11T09:09:50Z</time></trkpt>
<trkpt lat="42.563644359" lon="12.653963836"><ele>143</ele><time>2020-10-11T09:09:51Z</time></trkpt>
<trkpt lat="42.563473284" lon="12.653853362"><ele>143</ele><time>2020-10-11T09:09:58Z</time></trkpt>
<trkpt lat="42.563426429" lon="12.653819416"><ele>143</ele><time>2020-10-11T09:10:00Z</time></trkpt>
<trkpt lat="42.563240016" lon="12.653731741"><ele>143</ele><time>2020-10-11T09:10:08Z</time></trkpt>
<trkpt lat="42.563082604" lon="12.653665189"><ele>144</ele><time>2020-10-11T09:10:14Z</time></trkpt>
<trkpt lat="42.562904153" lon="12.653634846"><ele>143</ele><time>2020-10-11T09:10:20Z</time></trkpt>
<trkpt lat="42.562874313" lon="12.653627638"><ele>143</ele><time>2020-10-11T09:10:21Z</time></trkpt>
<trkpt lat="42.562681865" lon="12.653554045"><ele>144</ele><time>2020-10-11T09:10:28Z</time></trkpt>
<trkpt lat="42.562489668" lon="12.65348766"><ele>144</ele><time>2020-10-11T09:10:35Z</time></trkpt>
<trkpt lat="42.562290933" lon="12.65340887"><ele>144</ele><time>2020-10-11T09:10:42Z</time></trkpt>
<trkpt lat="42.562263357" lon="12.653398644"><ele>144</ele><time>2020-10-11T09:10:43Z</time></trkpt>
<trkpt lat="42.562068645" lon="12.653318513"><ele>144</ele><time>2020-10-11T09:10:50Z</time></trkpt>
<trkpt lat="42.561986418" lon="12.653271575"><ele>144</ele><time>2020-10-11T09:10:53Z</time></trkpt>
<trkpt lat="42.561810147" lon="12.653201502"><ele>144</ele><time>2020-10-11T09:10:59Z</time></trkpt>
<trkpt lat="42.561754743" lon="12.653179206"><ele>144</ele><time>2020-10-11T09:11:01Z</time></trkpt>
<trkpt lat="42.561581489" lon="12.653101422"><ele>144</ele><time>2020-10-11T09:11:07Z</time></trkpt>
<trkpt lat="42.56149658" lon="12.653053897"><ele>144</ele><time>2020-10-11T09:11:10Z</time></trkpt>
<trkpt lat="42.56131419" lon="12.652916852"><ele>143</ele><time>2020-10-11T09:11:17Z</time></trkpt>
<trkpt lat="42.561289798" lon="12.652895479"><ele>143</ele><time>2020-10-11T09:11:18Z</time></trkpt>
<trkpt lat="42.56112258" lon="12.652747706"><ele>144</ele><time>2020-10-11T09:11:25Z</time></trkpt>
<trkpt lat="42.561076479" lon="12.652707053"><ele>144</ele><time>2020-10-11T09:11:27Z</time></trkpt>
<trkpt lat="42.560907751" lon="12.652564729"><ele>144</ele><time>2020-10-11T09:11:34Z</time></trkpt>
<trkpt lat="42.56075344" lon="12.652405389"><ele>144</ele><time>2020-10-11T09:11:41Z</time></trkpt>
<trkpt lat="42.560732402" lon="12.652380327"><ele>145</ele><time>2020-10-11T09:11:42Z</time></trkpt>
<trkpt lat="42.560592256" lon="12.652211012"><ele>144</ele><time>2020-10-11T09:11:49Z</time></trkpt>
<trkpt lat="42.560540456" lon="12.652006829"><ele>143</ele><time>2020-10-11T09:11:55Z</time></trkpt>
<trkpt lat="42.560566692" lon="12.65174699"><ele>143</ele><time>2020-10-11T09:12:01Z</time></trkpt>
<trkpt lat="42.560639195" lon="12.651489917"><ele>143</ele><time>2020-10-11T09:12:07Z</time></trkpt>
<trkpt lat="42.560659312" lon="12.65145354"><ele>143</ele><time>2020-10-11T09:12:08Z</time></trkpt>
<trkpt lat="42.560757967" lon="12.65124877"><ele>143</ele><time>2020-10-11T09:12:14Z</time></trkpt>
<trkpt lat="42.560797362" lon="12.651179535"><ele>143</ele><time>2020-10-11T09:12:16Z</time></trkpt>
<trkpt lat="42.56091496" lon="12.650983064"><ele>143</ele><time>2020-10-11T09:12:22Z</time></trkpt>
<trkpt lat="42.560935998" lon="12.650916846"><ele>143</ele><time>2020-10-11T09:12:24Z</time></trkpt>
<trkpt lat="42.560896352" lon="12.650751639"><ele>144</ele><time>2020-10-11T09:12:29Z</time></trkpt>
<trkpt lat="42.560776658" lon="12.650603028"><ele>144</ele><time>2020-10-11T09:12:35Z</time></trkpt>
<trkpt lat="42.560601728" lon="12.650525579"><ele>144</ele><time>2020-10-11T09:12:41Z</time></trkpt>
<trkpt lat="42.560573062" lon="12.65050957"><ele>144</ele><time>2020-10-11T09:12:42Z</time></trkpt>
<trkpt lat="42.560399892" lon="12.65038711"><ele>144</ele><time>2020-10-11T09:12:49Z</time></trkpt>
<trkpt lat="42.56035354" lon="12.650350062"><ele>143</ele><time>2020-10-11T09:12:51Z</time></trkpt>
<trkpt lat="42.560210377" lon="12.650232632"><ele>143</ele><time>2020-10-11T09:12:57Z</time></trkpt>
<trkpt lat="42.560146004" lon="12.650173288"><ele>144</ele><time>2020-10-11T09:13:00Z</time></trkpt>
<trkpt lat="42.560059587" lon="12.650081757"><ele>144</ele><time>2020-10-11T09:13:04Z</time></trkpt>
<trkpt lat="42.55988122" lon="12.649935577"><ele>144</ele><time>2020-10-11T09:13:12Z</time></trkpt>
<trkpt lat="42.559719868" lon="12.64981362"><ele>144</ele><time>2020-10-11T09:13:18Z</time></trkpt>
<trkpt lat="42.559697656" lon="12.649785541"><ele>144</ele><time>2020-10-11T09:13:19Z</time></trkpt>
<trkpt lat="42.559557678" lon="12.649606923"><ele>144</ele><time>2020-10-11T09:13:26Z</time></trkpt>
<trkpt lat="42.55953731" lon="12.649581106"><ele>144</ele><time>2020-10-11T09:13:27Z</time></trkpt>
<trkpt lat="42.559401859" lon="12.649396537"><ele>144</ele><time>2020-10-11T09:13:34Z</time></trkpt>
<trkpt lat="42.55938434" lon="12.64936896"><ele>144</ele><time>2020-10-11T09:13:35Z</time></trkpt>
<trkpt lat="42.559244027" lon="12.649190007"><ele>144</ele><time>2020-10-11T09:13:42Z</time></trkpt>
<trkpt lat="42.559224749" lon="12.649161844"><ele>144</ele><time>2020-10-11T09:13:43Z</time></trkpt>
<trkpt lat="42.559094578" lon="12.648981716"><ele>144</ele><time>2020-10-11T09:13:50Z</time></trkpt>
<trkpt lat="42.559034312" lon="12.648776527"><ele>144</ele><time>2020-10-11T09:13:56Z</time></trkpt>
<trkpt lat="42.559085693" lon="12.648592461"><ele>144</ele><time>2020-10-11T09:14:01Z</time></trkpt>
<trkpt lat="42.55918175" lon="12.648376711"><ele>145</ele><time>2020-10-11T09:14:07Z</time></trkpt>
<trkpt lat="42.559198178" lon="12.648344859"><ele>145</ele><time>2020-10-11T09:14:08Z</time></trkpt>
<trkpt lat="42.559318878" lon="12.648198092"><ele>144</ele><time>2020-10-11T09:14:14Z</time></trkpt>
<trkpt lat="42.559465645" lon="12.64810212"><ele>145</ele><time>2020-10-11T09:14:20Z</time></trkpt>
<trkpt lat="42.55958165" lon="12.647928782"><ele>145</ele><time>2020-10-11T09:14:27Z</time></trkpt>
<trkpt lat="42.559704948" lon="12.647741865"><ele>146</ele><time>2020-10-11T09:14:35Z</time></trkpt>
<trkpt lat="42.559862947" lon="12.647594344"><ele>146</ele><time>2020-10-11T09:14:42Z</time></trkpt>
<trkpt lat="42.560024047" lon="12.647422599"><ele>147</ele><time>2020-10-11T09:14:49Z</time></trkpt>
<trkpt lat="42.560084816" lon="12.647342384"><ele>147</ele><time>2020-10-11T09:14:52Z</time></trkpt>
<trkpt lat="42.560152626" lon="12.64725144"><ele>148</ele><time>2020-10-11T09:14:56Z</time></trkpt></trkseg></trk><wpt lat="42.560152626" lon="12.64725144"><name>Finish km:14.974, Lat:42.5602, Lon:12.6473</name><sym>Finish</sym><ele>148</ele></wpt><wpt lat="42.562318174" lon="12.65344223"><name>km:1, Lat:42.5623, Lon:12.6534</name><ele>141</ele></wpt><wpt lat="42.557596061" lon="12.657027505"><name>km:2, Lat:42.5576, Lon:12.657</name><ele>153</ele></wpt><wpt lat="42.553481972" lon="12.666402496"><name>km:3, Lat:42.5535, Lon:12.6664</name><ele>175</ele></wpt><wpt lat="42.553664027" lon="12.678045379"><name>km:4, Lat:42.5537, Lon:12.678</name><ele>213</ele></wpt><wpt lat="42.550450908" lon="12.688180525"><name>km:5, Lat:42.5505, Lon:12.6882</name><ele>226</ele></wpt><wpt lat="42.552028969" lon="12.693769326"><name>km:6, Lat:42.552, Lon:12.6938</name><ele>194</ele></wpt><wpt lat="42.554239361" lon="12.70483017"><name>km:7, Lat:42.5542, Lon:12.7048</name><ele>206</ele></wpt><wpt lat="42.554907063" lon="12.711102851"><name>km:8, Lat:42.5549, Lon:12.7111</name><ele>222</ele></wpt><wpt lat="42.553575849" lon="12.699830197"><name>km:9, Lat:42.5536, Lon:12.6998</name><ele>199</ele></wpt><wpt lat="42.553636283" lon="12.688156217"><name>km:10, Lat:42.5536, Lon:12.6882</name><ele>183</ele></wpt><wpt lat="42.557490366" lon="12.681610705"><name>km:11, Lat:42.5575, Lon:12.6816</name><ele>172</ele></wpt><wpt lat="42.558854939" lon="12.672890928"><name>km:12, Lat:42.5589, Lon:12.6729</name><ele>162</ele></wpt><wpt lat="42.562937681" lon="12.664966593"><name>km:13, Lat:42.5629, Lon:12.665</name><ele>152</ele></wpt><wpt lat="42.563832868" lon="12.654104987"><name>km:14, Lat:42.5638, Lon:12.6541</name><ele>143</ele></wpt></gpx>
